<?xml version="1.0" encoding="UTF-8" standalone="no" ?><gpx xmlns="http://www.topografix.com/GPX/1/1" xmlns:gpxx="http://www.garmin.com/xmlschemas/GpxExtensions/v3" xmlns:wptx1="http://www.garmin.com/xmlschemas/WaypointExtension/v1" xmlns:gpxtpx="http://www.garmin.com/xmlschemas/TrackPointExtension/v1" creator="Dakota 20" version="1.1" xmlns:xsi="http://www.w3.org/2001/XMLSchema-instance" xsi:schemaLocation="http://www.topografix.com/GPX/1/1 http://www.topografix.com/GPX/1/1/gpx.xsd http://www.garmin.com/xmlschemas/GpxExtensions/v3 http://www8.garmin.com/xmlschemas/GpxExtensionsv3.xsd http://www.garmin.com/xmlschemas/WaypointExtension/v1 http://www8.garmin.com/xmlschemas/WaypointExtensionv1.xsd http://www.garmin.com/xmlschemas/TrackPointExtension/v1 http://www.garmin.com/xmlschemas/TrackPointExtensionv1.xsd"><metadata><link href="http://www.garmin.com"><text>Garmin International</text></link><time>2011-12-01T08:48:31Z</time></metadata><trk><name>Current Track: 30 NOV 2011 09:55</name><extensions><gpxx:TrackExtension><gpxx:DisplayColor>Black</gpxx:DisplayColor></gpxx:TrackExtension></extensions><trkseg><trkpt lat="51.9372069743" lon="-1.8604107667"><ele>196.25</ele><time>2011-11-30T09:55:46Z</time></trkpt><trkpt lat="51.9372069743" lon="-1.8604107667"><ele>195.28</ele><time>2011-11-30T09:56:08Z</time></trkpt><trkpt lat="51.9372073933" lon="-1.8604110181"><ele>195.77</ele><time>2011-11-30T09:56:26Z</time></trkpt><trkpt lat="51.9372067228" lon="-1.8604081683"><ele>195.77</ele><time>2011-11-30T09:56:47Z</time></trkpt><trkpt lat="51.9372069743" lon="-1.8604209088"><ele>192.40</ele><time>2011-11-30T09:56:57Z</time></trkpt><trkpt lat="51.9372091535" lon="-1.8604247645"><ele>194.32</ele><time>2011-11-30T09:56:58Z</time></trkpt><trkpt lat="51.9372091535" lon="-1.8604247645"><ele>197.69</ele><time>2011-11-30T09:56:59Z</time></trkpt><trkpt lat="51.9372091535" lon="-1.8604247645"><ele>196.25</ele><time>2011-11-30T09:57:15Z</time></trkpt><trkpt lat="51.9372035377" lon="-1.8604130298"><ele>195.28</ele><time>2011-11-30T09:57:38Z</time></trkpt><trkpt lat="51.9372049626" lon="-1.8604174722"><ele>195.77</ele><time>2011-11-30T09:57:58Z</time></trkpt><trkpt lat="51.9372666534" lon="-1.8604946695"><ele>195.77</ele><time>2011-11-30T09:58:07Z</time></trkpt><trkpt lat="51.9371933956" lon="-1.8605397642"><ele>195.77</ele><time>2011-11-30T09:58:14Z</time></trkpt><trkpt lat="51.9369927328" lon="-1.8604672607"><ele>194.80</ele><time>2011-11-30T09:58:29Z</time></trkpt><trkpt lat="51.9367680140" lon="-1.8603737187"><ele>193.36</ele><time>2011-11-30T09:58:46Z</time></trkpt><trkpt lat="51.9367162138" lon="-1.8603639118"><ele>193.36</ele><time>2011-11-30T09:58:50Z</time></trkpt><trkpt lat="51.9366001245" lon="-1.8603297137"><ele>192.88</ele><time>2011-11-30T09:58:59Z</time></trkpt><trkpt lat="51.9364772458" lon="-1.8601936754"><ele>191.92</ele><time>2011-11-30T09:59:13Z</time></trkpt><trkpt lat="51.9365078397" lon="-1.8598706368"><ele>190.48</ele><time>2011-11-30T09:59:30Z</time></trkpt><trkpt lat="51.9365676027" lon="-1.8595686369"><ele>188.08</ele><time>2011-11-30T09:59:48Z</time></trkpt><trkpt lat="51.9366004597" lon="-1.8592732586"><ele>186.63</ele><time>2011-11-30T10:00:05Z</time></trkpt><trkpt lat="51.9366458897" lon="-1.8591105659"><ele>185.67</ele><time>2011-11-30T10:00:19Z</time></trkpt><trkpt lat="51.9366230909" lon="-1.8588353880"><ele>182.79</ele><time>2011-11-30T10:00:37Z</time></trkpt><trkpt lat="51.9365863781" lon="-1.8584886286"><ele>179.42</ele><time>2011-11-30T10:00:56Z</time></trkpt><trkpt lat="51.9365583826" lon="-1.8582316395"><ele>177.50</ele><time>2011-11-30T10:01:12Z</time></trkpt><trkpt lat="51.9365447201" lon="-1.8579977844"><ele>175.58</ele><time>2011-11-30T10:01:29Z</time></trkpt><trkpt lat="51.9364964403" lon="-1.8578206748"><ele>174.14</ele><time>2011-11-30T10:01:45Z</time></trkpt><trkpt lat="51.9364184048" lon="-1.8576148991"><ele>173.17</ele><time>2011-11-30T10:02:03Z</time></trkpt><trkpt lat="51.9364075921" lon="-1.8575686309"><ele>167.89</ele><time>2011-11-30T10:02:15Z</time></trkpt><trkpt lat="51.9364075921" lon="-1.8575686309"><ele>189.52</ele><time>2011-11-30T10:02:16Z</time></trkpt><trkpt lat="51.9364075921" lon="-1.8575686309"><ele>173.66</ele><time>2011-11-30T10:02:17Z</time></trkpt><trkpt lat="51.9363757409" lon="-1.8574681319"><ele>173.17</ele><time>2011-11-30T10:02:36Z</time></trkpt><trkpt lat="51.9363614079" lon="-1.8574376218"><ele>173.17</ele><time>2011-11-30T10:02:53Z</time></trkpt><trkpt lat="51.9363884814" lon="-1.8573911022"><ele>173.17</ele><time>2011-11-30T10:03:11Z</time></trkpt><trkpt lat="51.9365629926" lon="-1.8571881764"><ele>173.17</ele><time>2011-11-30T10:03:25Z</time></trkpt><trkpt lat="51.9366477337" lon="-1.8571156729"><ele>173.17</ele><time>2011-11-30T10:03:31Z</time></trkpt><trkpt lat="51.9368028827" lon="-1.8570493720"><ele>173.66</ele><time>2011-11-30T10:03:42Z</time></trkpt><trkpt lat="51.9368949160" lon="-1.8570129108"><ele>174.14</ele><time>2011-11-30T10:03:56Z</time></trkpt><trkpt lat="51.9370807428" lon="-1.8569249008"><ele>174.62</ele><time>2011-11-30T10:04:12Z</time></trkpt><trkpt lat="51.9372968283" lon="-1.8569633737"><ele>174.62</ele><time>2011-11-30T10:04:29Z</time></trkpt><trkpt lat="51.9374502171" lon="-1.8570143357"><ele>175.58</ele><time>2011-11-30T10:04:45Z</time></trkpt><trkpt lat="51.9377005007" lon="-1.8571280781"><ele>176.06</ele><time>2011-11-30T10:05:03Z</time></trkpt><trkpt lat="51.9378340244" lon="-1.8571453448"><ele>176.06</ele><time>2011-11-30T10:05:15Z</time></trkpt><trkpt lat="51.9380028360" lon="-1.8571740948"><ele>177.02</ele><time>2011-11-30T10:05:31Z</time></trkpt><trkpt lat="51.9381843042" lon="-1.8571500387"><ele>177.98</ele><time>2011-11-30T10:05:50Z</time></trkpt><trkpt lat="51.9384052511" lon="-1.8571600970"><ele>179.42</ele><time>2011-11-30T10:06:05Z</time></trkpt><trkpt lat="51.9385120366" lon="-1.8571080454"><ele>180.87</ele><time>2011-11-30T10:06:17Z</time></trkpt><trkpt lat="51.9385510962" lon="-1.8570811395"><ele>181.35</ele><time>2011-11-30T10:06:20Z</time></trkpt><trkpt lat="51.9386916608" lon="-1.8568782974"><ele>182.79</ele><time>2011-11-30T10:06:38Z</time></trkpt><trkpt lat="51.9388194848" lon="-1.8567130901"><ele>184.71</ele><time>2011-11-30T10:06:55Z</time></trkpt><trkpt lat="51.9389214925" lon="-1.8565152772"><ele>186.15</ele><time>2011-11-30T10:07:10Z</time></trkpt><trkpt lat="51.9389264379" lon="-1.8565019500"><ele>186.63</ele><time>2011-11-30T10:07:11Z</time></trkpt><trkpt lat="51.9389710296" lon="-1.8564278539"><ele>187.11</ele><time>2011-11-30T10:07:17Z</time></trkpt><trkpt lat="51.9390960038" lon="-1.8562675919"><ele>189.04</ele><time>2011-11-30T10:07:34Z</time></trkpt><trkpt lat="51.9392110035" lon="-1.8560610618"><ele>190.96</ele><time>2011-11-30T10:07:51Z</time></trkpt><trkpt lat="51.9392737839" lon="-1.8559294660"><ele>192.40</ele><time>2011-11-30T10:08:04Z</time></trkpt><trkpt lat="51.9393342175" lon="-1.8557889853"><ele>192.88</ele><time>2011-11-30T10:08:17Z</time></trkpt><trkpt lat="51.9394202996" lon="-1.8556563836"><ele>193.84</ele><time>2011-11-30T10:08:32Z</time></trkpt><trkpt lat="51.9395182002" lon="-1.8554651085"><ele>195.28</ele><time>2011-11-30T10:08:47Z</time></trkpt><trkpt lat="51.9396286737" lon="-1.8552380428"><ele>196.73</ele><time>2011-11-30T10:09:03Z</time></trkpt><trkpt lat="51.9397196174" lon="-1.8550303392"><ele>198.17</ele><time>2011-11-30T10:09:17Z</time></trkpt><trkpt lat="51.9398166798" lon="-1.8548505474"><ele>199.13</ele><time>2011-11-30T10:09:33Z</time></trkpt><trkpt lat="51.9399119820" lon="-1.8546580989"><ele>200.57</ele><time>2011-11-30T10:09:48Z</time></trkpt><trkpt lat="51.9399837311" lon="-1.8545267545"><ele>202.01</ele><time>2011-11-30T10:10:01Z</time></trkpt><trkpt lat="51.9400629401" lon="-1.8542940728"><ele>203.46</ele><time>2011-11-30T10:10:18Z</time></trkpt><trkpt lat="51.9401679654" lon="-1.8541133590"><ele>204.42</ele><time>2011-11-30T10:10:37Z</time></trkpt><trkpt lat="51.9402900059" lon="-1.8539143726"><ele>206.82</ele><time>2011-11-30T10:10:57Z</time></trkpt><trkpt lat="51.9404071849" lon="-1.8536826968"><ele>208.74</ele><time>2011-11-30T10:11:13Z</time></trkpt><trkpt lat="51.9405076001" lon="-1.8534638453"><ele>209.70</ele><time>2011-11-30T10:11:26Z</time></trkpt><trkpt lat="51.9406050816" lon="-1.8533129711"><ele>211.63</ele><time>2011-11-30T10:11:44Z</time></trkpt><trkpt lat="51.9406984560" lon="-1.8530757632"><ele>213.07</ele><time>2011-11-30T10:12:03Z</time></trkpt><trkpt lat="51.9408212509" lon="-1.8528760225"><ele>214.51</ele><time>2011-11-30T10:12:20Z</time></trkpt><trkpt lat="51.9409685209" lon="-1.8526675645"><ele>215.47</ele><time>2011-11-30T10:12:40Z</time></trkpt><trkpt lat="51.9410496578" lon="-1.8525300175"><ele>217.40</ele><time>2011-11-30T10:12:57Z</time></trkpt><trkpt lat="51.9411354046" lon="-1.8523990083"><ele>218.36</ele><time>2011-11-30T10:13:19Z</time></trkpt><trkpt lat="51.9413535856" lon="-1.8520767242"><ele>219.80</ele><time>2011-11-30T10:13:37Z</time></trkpt><trkpt lat="51.9414560124" lon="-1.8518493231"><ele>221.24</ele><time>2011-11-30T10:13:55Z</time></trkpt><trkpt lat="51.9415502250" lon="-1.8516852055"><ele>222.20</ele><time>2011-11-30T10:14:11Z</time></trkpt><trkpt lat="51.9416575134" lon="-1.8514982052"><ele>224.12</ele><time>2011-11-30T10:14:27Z</time></trkpt><trkpt lat="51.9417171087" lon="-1.8513818644"><ele>225.57</ele><time>2011-11-30T10:14:38Z</time></trkpt><trkpt lat="51.9417956471" lon="-1.8511672039"><ele>227.01</ele><time>2011-11-30T10:14:52Z</time></trkpt><trkpt lat="51.9418673962" lon="-1.8509434909"><ele>228.93</ele><time>2011-11-30T10:15:08Z</time></trkpt><trkpt lat="51.9419293385" lon="-1.8507286627"><ele>229.89</ele><time>2011-11-30T10:15:22Z</time></trkpt><trkpt lat="51.9419923704" lon="-1.8505186122"><ele>231.33</ele><time>2011-11-30T10:15:38Z</time></trkpt><trkpt lat="51.9420424104" lon="-1.8502916303"><ele>232.78</ele><time>2011-11-30T10:15:54Z</time></trkpt><trkpt lat="51.9420498703" lon="-1.8499389198"><ele>234.22</ele><time>2011-11-30T10:16:14Z</time></trkpt><trkpt lat="51.9420714118" lon="-1.8496233411"><ele>236.14</ele><time>2011-11-30T10:16:33Z</time></trkpt><trkpt lat="51.9420915283" lon="-1.8493176531"><ele>237.10</ele><time>2011-11-30T10:16:52Z</time></trkpt><trkpt lat="51.9421211164" lon="-1.8490494322"><ele>239.02</ele><time>2011-11-30T10:17:08Z</time></trkpt><trkpt lat="51.9421391375" lon="-1.8488922715"><ele>239.99</ele><time>2011-11-30T10:17:18Z</time></trkpt><trkpt lat="51.9421660434" lon="-1.8487619329"><ele>240.95</ele><time>2011-11-30T10:17:30Z</time></trkpt><trkpt lat="51.9422352780" lon="-1.8485163432"><ele>242.39</ele><time>2011-11-30T10:17:45Z</time></trkpt><trkpt lat="51.9423048478" lon="-1.8483484536"><ele>243.35</ele><time>2011-11-30T10:18:00Z</time></trkpt><trkpt lat="51.9423771836" lon="-1.8481299374"><ele>244.79</ele><time>2011-11-30T10:18:15Z</time></trkpt><trkpt lat="51.9424435683" lon="-1.8479218148"><ele>246.23</ele><time>2011-11-30T10:18:32Z</time></trkpt><trkpt lat="51.9425174128" lon="-1.8477438670"><ele>247.20</ele><time>2011-11-30T10:18:46Z</time></trkpt><trkpt lat="51.9425974600" lon="-1.8475522567"><ele>248.16</ele><time>2011-11-30T10:19:02Z</time></trkpt><trkpt lat="51.9426728133" lon="-1.8473795056"><ele>249.12</ele><time>2011-11-30T10:19:16Z</time></trkpt><trkpt lat="51.9427308161" lon="-1.8472403660"><ele>250.08</ele><time>2011-11-30T10:19:27Z</time></trkpt><trkpt lat="51.9428036548" lon="-1.8470496777"><ele>251.04</ele><time>2011-11-30T10:19:41Z</time></trkpt><trkpt lat="51.9428649265" lon="-1.8468664493"><ele>252.00</ele><time>2011-11-30T10:19:55Z</time></trkpt><trkpt lat="51.9429303892" lon="-1.8466927763"><ele>253.44</ele><time>2011-11-30T10:20:08Z</time></trkpt><trkpt lat="51.9430002943" lon="-1.8465131521"><ele>254.41</ele><time>2011-11-30T10:20:22Z</time></trkpt><trkpt lat="51.9430298824" lon="-1.8464565743"><ele>254.41</ele><time>2011-11-30T10:20:27Z</time></trkpt><trkpt lat="51.9431023858" lon="-1.8462818116"><ele>255.37</ele><time>2011-11-30T10:20:41Z</time></trkpt><trkpt lat="51.9431396015" lon="-1.8461439293"><ele>256.33</ele><time>2011-11-30T10:20:55Z</time></trkpt><trkpt lat="51.9431396015" lon="-1.8461439293"><ele>256.33</ele><time>2011-11-30T10:20:56Z</time></trkpt><trkpt lat="51.9431914855" lon="-1.8460534886"><ele>256.33</ele><time>2011-11-30T10:21:01Z</time></trkpt><trkpt lat="51.9432590436" lon="-1.8458746187"><ele>257.77</ele><time>2011-11-30T10:21:15Z</time></trkpt><trkpt lat="51.9432742987" lon="-1.8458152749"><ele>258.25</ele><time>2011-11-30T10:21:29Z</time></trkpt><trkpt lat="51.9432714488" lon="-1.8458169512"><ele>258.73</ele><time>2011-11-30T10:21:50Z</time></trkpt><trkpt lat="51.9432714488" lon="-1.8458169512"><ele>253.93</ele><time>2011-11-30T10:21:54Z</time></trkpt><trkpt lat="51.9432714488" lon="-1.8458169512"><ele>258.73</ele><time>2011-11-30T10:21:55Z</time></trkpt><trkpt lat="51.9432717841" lon="-1.8458191305"><ele>258.25</ele><time>2011-11-30T10:22:21Z</time></trkpt><trkpt lat="51.9432662521" lon="-1.8458348047"><ele>257.29</ele><time>2011-11-30T10:22:39Z</time></trkpt><trkpt lat="51.9432662521" lon="-1.8458348047"><ele>257.29</ele><time>2011-11-30T10:23:03Z</time></trkpt><trkpt lat="51.9432374183" lon="-1.8458159454"><ele>257.77</ele><time>2011-11-30T10:23:23Z</time></trkpt><trkpt lat="51.9431564491" lon="-1.8457405921"><ele>259.21</ele><time>2011-11-30T10:23:36Z</time></trkpt><trkpt lat="51.9430367555" lon="-1.8457156979"><ele>259.69</ele><time>2011-11-30T10:23:48Z</time></trkpt><trkpt lat="51.9429163914" lon="-1.8456566893"><ele>260.17</ele><time>2011-11-30T10:24:01Z</time></trkpt><trkpt lat="51.9428138807" lon="-1.8455546815"><ele>260.65</ele><time>2011-11-30T10:24:14Z</time></trkpt><trkpt lat="51.9427621644" lon="-1.8455183040"><ele>261.14</ele><time>2011-11-30T10:24:21Z</time></trkpt><trkpt lat="51.9427089393" lon="-1.8454572838"><ele>261.14</ele><time>2011-11-30T10:24:27Z</time></trkpt><trkpt lat="51.9425584842" lon="-1.8453417812"><ele>261.14</ele><time>2011-11-30T10:24:42Z</time></trkpt><trkpt lat="51.9424578175" lon="-1.8452665955"><ele>262.10</ele><time>2011-11-30T10:24:54Z</time></trkpt><trkpt lat="51.9423806202" lon="-1.8451938406"><ele>262.10</ele><time>2011-11-30T10:25:04Z</time></trkpt><trkpt lat="51.9423573185" lon="-1.8451852910"><ele>262.10</ele><time>2011-11-30T10:25:06Z</time></trkpt><trkpt lat="51.9423298258" lon="-1.8451526854"><ele>262.10</ele><time>2011-11-30T10:25:09Z</time></trkpt><trkpt lat="51.9422662910" lon="-1.8451448902"><ele>263.06</ele><time>2011-11-30T10:25:18Z</time></trkpt><trkpt lat="51.9422350265" lon="-1.8450977840"><ele>263.54</ele><time>2011-11-30T10:25:23Z</time></trkpt><trkpt lat="51.9421272352" lon="-1.8450018950"><ele>263.54</ele><time>2011-11-30T10:25:37Z</time></trkpt><trkpt lat="51.9420723338" lon="-1.8449630029"><ele>263.54</ele><time>2011-11-30T10:25:45Z</time></trkpt><trkpt lat="51.9420371298" lon="-1.8449239433"><ele>263.54</ele><time>2011-11-30T10:25:49Z</time></trkpt><trkpt lat="51.9419659674" lon="-1.8448648509"><ele>264.02</ele><time>2011-11-30T10:25:58Z</time></trkpt><trkpt lat="51.9418910332" lon="-1.8447776791"><ele>263.54</ele><time>2011-11-30T10:26:07Z</time></trkpt><trkpt lat="51.9418582600" lon="-1.8447431456"><ele>263.06</ele><time>2011-11-30T10:26:10Z</time></trkpt><trkpt lat="51.9417827390" lon="-1.8446398806"><ele>263.06</ele><time>2011-11-30T10:26:22Z</time></trkpt><trkpt lat="51.9416705891" lon="-1.8444522098"><ele>262.58</ele><time>2011-11-30T10:26:37Z</time></trkpt><trkpt lat="51.9415856805" lon="-1.8442051113"><ele>262.58</ele><time>2011-11-30T10:26:54Z</time></trkpt><trkpt lat="51.9414441101" lon="-1.8440854177"><ele>262.58</ele><time>2011-11-30T10:27:09Z</time></trkpt><trkpt lat="51.9413769711" lon="-1.8440863397"><ele>262.58</ele><time>2011-11-30T10:27:21Z</time></trkpt><trkpt lat="51.9413721934" lon="-1.8440816458"><ele>262.10</ele><time>2011-11-30T10:27:36Z</time></trkpt><trkpt lat="51.9413638953" lon="-1.8440770358"><ele>262.10</ele><time>2011-11-30T10:27:53Z</time></trkpt><trkpt lat="51.9412861113" lon="-1.8440450169"><ele>261.62</ele><time>2011-11-30T10:28:06Z</time></trkpt><trkpt lat="51.9412428606" lon="-1.8439996708"><ele>253.93</ele><time>2011-11-30T10:28:10Z</time></trkpt><trkpt lat="51.9412323833" lon="-1.8439915404"><ele>266.90</ele><time>2011-11-30T10:28:11Z</time></trkpt><trkpt lat="51.9412245881" lon="-1.8439845834"><ele>261.14</ele><time>2011-11-30T10:28:12Z</time></trkpt><trkpt lat="51.9412162900" lon="-1.8439822365"><ele>262.58</ele><time>2011-11-30T10:28:14Z</time></trkpt><trkpt lat="51.9411317166" lon="-1.8439078890"><ele>261.62</ele><time>2011-11-30T10:28:24Z</time></trkpt><trkpt lat="51.9410536811" lon="-1.8438807316"><ele>261.62</ele><time>2011-11-30T10:28:31Z</time></trkpt><trkpt lat="51.9409526791" lon="-1.8438174482"><ele>262.10</ele><time>2011-11-30T10:28:40Z</time></trkpt><trkpt lat="51.9408052415" lon="-1.8437364791"><ele>261.62</ele><time>2011-11-30T10:28:53Z</time></trkpt><trkpt lat="51.9407966081" lon="-1.8437245768"><ele>262.10</ele><time>2011-11-30T10:28:54Z</time></trkpt><trkpt lat="51.9407712109" lon="-1.8436862715"><ele>261.14</ele><time>2011-11-30T10:28:57Z</time></trkpt><trkpt lat="51.9406430516" lon="-1.8435835931"><ele>261.62</ele><time>2011-11-30T10:29:12Z</time></trkpt><trkpt lat="51.9405840430" lon="-1.8435564358"><ele>261.62</ele><time>2011-11-30T10:29:19Z</time></trkpt><trkpt lat="51.9405635074" lon="-1.8435603753"><ele>262.10</ele><time>2011-11-30T10:29:22Z</time></trkpt><trkpt lat="51.9405491743" lon="-1.8435952440"><ele>261.62</ele><time>2011-11-30T10:29:28Z</time></trkpt><trkpt lat="51.9405217655" lon="-1.8435745407"><ele>261.62</ele><time>2011-11-30T10:29:31Z</time></trkpt><trkpt lat="51.9404882379" lon="-1.8435147777"><ele>262.10</ele><time>2011-11-30T10:29:36Z</time></trkpt><trkpt lat="51.9403812848" lon="-1.8433613051"><ele>262.58</ele><time>2011-11-30T10:29:49Z</time></trkpt><trkpt lat="51.9403644372" lon="-1.8433478102"><ele>263.06</ele><time>2011-11-30T10:30:03Z</time></trkpt><trkpt lat="51.9403570611" lon="-1.8433214072"><ele>263.06</ele><time>2011-11-30T10:30:19Z</time></trkpt><trkpt lat="51.9403519481" lon="-1.8432991952"><ele>263.06</ele><time>2011-11-30T10:30:34Z</time></trkpt><trkpt lat="51.9403052609" lon="-1.8432963453"><ele>263.54</ele><time>2011-11-30T10:30:39Z</time></trkpt><trkpt lat="51.9401828852" lon="-1.8431814294"><ele>263.06</ele><time>2011-11-30T10:30:52Z</time></trkpt><trkpt lat="51.9401425682" lon="-1.8431560323"><ele>263.06</ele><time>2011-11-30T10:30:56Z</time></trkpt><trkpt lat="51.9401089568" lon="-1.8431224208"><ele>263.54</ele><time>2011-11-30T10:31:00Z</time></trkpt><trkpt lat="51.9400320109" lon="-1.8430568743"><ele>263.54</ele><time>2011-11-30T10:31:09Z</time></trkpt><trkpt lat="51.9399870001" lon="-1.8430211674"><ele>263.54</ele><time>2011-11-30T10:31:20Z</time></trkpt><trkpt lat="51.9399396423" lon="-1.8429831974"><ele>263.54</ele><time>2011-11-30T10:31:33Z</time></trkpt><trkpt lat="51.9399397261" lon="-1.8429838680"><ele>264.02</ele><time>2011-11-30T10:31:48Z</time></trkpt><trkpt lat="51.9399435818" lon="-1.8429900706"><ele>264.02</ele><time>2011-11-30T10:32:04Z</time></trkpt><trkpt lat="51.9399489462" lon="-1.8429941777"><ele>263.54</ele><time>2011-11-30T10:32:11Z</time></trkpt><trkpt lat="51.9399291649" lon="-1.8430271186"><ele>264.02</ele><time>2011-11-30T10:32:22Z</time></trkpt><trkpt lat="51.9398989063" lon="-1.8429961894"><ele>264.02</ele><time>2011-11-30T10:32:31Z</time></trkpt><trkpt lat="51.9397833198" lon="-1.8428257853"><ele>263.06</ele><time>2011-11-30T10:32:45Z</time></trkpt><trkpt lat="51.9397222158" lon="-1.8427690398"><ele>263.54</ele><time>2011-11-30T10:32:53Z</time></trkpt><trkpt lat="51.9396824017" lon="-1.8427547067"><ele>264.02</ele><time>2011-11-30T10:32:57Z</time></trkpt><trkpt lat="51.9395603612" lon="-1.8425998092"><ele>264.02</ele><time>2011-11-30T10:33:11Z</time></trkpt><trkpt lat="51.9394601136" lon="-1.8423962966"><ele>263.54</ele><time>2011-11-30T10:33:26Z</time></trkpt><trkpt lat="51.9394326210" lon="-1.8423675466"><ele>262.58</ele><time>2011-11-30T10:33:44Z</time></trkpt><trkpt lat="51.9394051284" lon="-1.8422957137"><ele>263.54</ele><time>2011-11-30T10:33:56Z</time></trkpt><trkpt lat="51.9394045416" lon="-1.8420992419"><ele>263.54</ele><time>2011-11-30T10:34:12Z</time></trkpt><trkpt lat="51.9394045416" lon="-1.8420992419"><ele>263.06</ele><time>2011-11-30T10:34:31Z</time></trkpt><trkpt lat="51.9394013565" lon="-1.8420779519"><ele>264.02</ele><time>2011-11-30T10:34:50Z</time></trkpt><trkpt lat="51.9394011889" lon="-1.8420815561"><ele>263.54</ele><time>2011-11-30T10:34:59Z</time></trkpt><trkpt lat="51.9393925555" lon="-1.8421103898"><ele>262.10</ele><time>2011-11-30T10:35:02Z</time></trkpt><trkpt lat="51.9392660726" lon="-1.8422248866"><ele>262.10</ele><time>2011-11-30T10:35:18Z</time></trkpt><trkpt lat="51.9392120093" lon="-1.8421904370"><ele>262.58</ele><time>2011-11-30T10:35:32Z</time></trkpt><trkpt lat="51.9391050562" lon="-1.8421013374"><ele>262.58</ele><time>2011-11-30T10:35:46Z</time></trkpt><trkpt lat="51.9390188064" lon="-1.8420074601"><ele>262.58</ele><time>2011-11-30T10:35:56Z</time></trkpt><trkpt lat="51.9389486499" lon="-1.8419216294"><ele>262.10</ele><time>2011-11-30T10:36:03Z</time></trkpt><trkpt lat="51.9389023818" lon="-1.8418281712"><ele>262.10</ele><time>2011-11-30T10:36:12Z</time></trkpt><trkpt lat="51.9388884678" lon="-1.8418114912"><ele>262.10</ele><time>2011-11-30T10:36:14Z</time></trkpt><trkpt lat="51.9388590474" lon="-1.8417608645"><ele>262.10</ele><time>2011-11-30T10:36:18Z</time></trkpt><trkpt lat="51.9387843646" lon="-1.8415853474"><ele>261.62</ele><time>2011-11-30T10:36:30Z</time></trkpt><trkpt lat="51.9387082569" lon="-1.8413706031"><ele>261.14</ele><time>2011-11-30T10:36:43Z</time></trkpt><trkpt lat="51.9387041498" lon="-1.8413623888"><ele>261.14</ele><time>2011-11-30T10:36:44Z</time></trkpt><trkpt lat="51.9386878051" lon="-1.8413392548"><ele>260.17</ele><time>2011-11-30T10:36:46Z</time></trkpt><trkpt lat="51.9385859650" lon="-1.8410466425"><ele>260.17</ele><time>2011-11-30T10:37:02Z</time></trkpt><trkpt lat="51.9385221787" lon="-1.8408218399"><ele>259.69</ele><time>2011-11-30T10:37:14Z</time></trkpt><trkpt lat="51.9385184906" lon="-1.8407549523"><ele>259.69</ele><time>2011-11-30T10:37:20Z</time></trkpt><trkpt lat="51.9384762459" lon="-1.8404695485"><ele>259.21</ele><time>2011-11-30T10:37:35Z</time></trkpt><trkpt lat="51.9384401198" lon="-1.8402255513"><ele>258.73</ele><time>2011-11-30T10:37:49Z</time></trkpt><trkpt lat="51.9384379406" lon="-1.8401871622"><ele>259.21</ele><time>2011-11-30T10:37:52Z</time></trkpt><trkpt lat="51.9383927621" lon="-1.8399735074"><ele>258.73</ele><time>2011-11-30T10:38:04Z</time></trkpt><trkpt lat="51.9383493438" lon="-1.8398637045"><ele>258.73</ele><time>2011-11-30T10:38:19Z</time></trkpt><trkpt lat="51.9383468293" lon="-1.8398611899"><ele>258.25</ele><time>2011-11-30T10:38:31Z</time></trkpt><trkpt lat="51.9383473322" lon="-1.8398344517"><ele>258.73</ele><time>2011-11-30T10:38:49Z</time></trkpt><trkpt lat="51.9383362681" lon="-1.8397628702"><ele>258.25</ele><time>2011-11-30T10:38:53Z</time></trkpt><trkpt lat="51.9383179117" lon="-1.8396743573"><ele>257.77</ele><time>2011-11-30T10:38:58Z</time></trkpt><trkpt lat="51.9383054227" lon="-1.8396127503"><ele>257.77</ele><time>2011-11-30T10:39:01Z</time></trkpt><trkpt lat="51.9382661115" lon="-1.8394018617"><ele>257.29</ele><time>2011-11-30T10:39:14Z</time></trkpt><trkpt lat="51.9382350985" lon="-1.8391987681"><ele>257.77</ele><time>2011-11-30T10:39:26Z</time></trkpt><trkpt lat="51.9382100366" lon="-1.8389666732"><ele>256.81</ele><time>2011-11-30T10:39:39Z</time></trkpt><trkpt lat="51.9381878246" lon="-1.8388302159"><ele>256.33</ele><time>2011-11-30T10:39:52Z</time></trkpt><trkpt lat="51.9381862320" lon="-1.8387683574"><ele>256.81</ele><time>2011-11-30T10:39:59Z</time></trkpt><trkpt lat="51.9381848071" lon="-1.8386998773"><ele>256.81</ele><time>2011-11-30T10:40:03Z</time></trkpt><trkpt lat="51.9381786883" lon="-1.8385474104"><ele>255.85</ele><time>2011-11-30T10:40:12Z</time></trkpt><trkpt lat="51.9381772634" lon="-1.8384833727"><ele>255.37</ele><time>2011-11-30T10:40:16Z</time></trkpt><trkpt lat="51.9381657802" lon="-1.8383758329"><ele>254.89</ele><time>2011-11-30T10:40:23Z</time></trkpt><trkpt lat="51.9381434843" lon="-1.8381408881"><ele>254.89</ele><time>2011-11-30T10:40:37Z</time></trkpt><trkpt lat="51.9381020777" lon="-1.8379015010"><ele>254.41</ele><time>2011-11-30T10:40:52Z</time></trkpt><trkpt lat="51.9380765967" lon="-1.8376826495"><ele>253.44</ele><time>2011-11-30T10:41:03Z</time></trkpt><trkpt lat="51.9380969647" lon="-1.8374242354"><ele>252.96</ele><time>2011-11-30T10:41:18Z</time></trkpt><trkpt lat="51.9381540455" lon="-1.8371087406"><ele>252.48</ele><time>2011-11-30T10:41:33Z</time></trkpt><trkpt lat="51.9381822087" lon="-1.8370338064"><ele>252.00</ele><time>2011-11-30T10:41:48Z</time></trkpt><trkpt lat="51.9381938595" lon="-1.8369720317"><ele>252.48</ele><time>2011-11-30T10:41:55Z</time></trkpt><trkpt lat="51.9381913450" lon="-1.8369209860"><ele>252.00</ele><time>2011-11-30T10:41:58Z</time></trkpt><trkpt lat="51.9381841365" lon="-1.8367940001"><ele>251.52</ele><time>2011-11-30T10:42:06Z</time></trkpt><trkpt lat="51.9382003136" lon="-1.8365269527"><ele>251.52</ele><time>2011-11-30T10:42:21Z</time></trkpt><trkpt lat="51.9382181671" lon="-1.8364556227"><ele>251.04</ele><time>2011-11-30T10:42:35Z</time></trkpt><trkpt lat="51.9382185023" lon="-1.8364546169"><ele>251.52</ele><time>2011-11-30T10:42:51Z</time></trkpt><trkpt lat="51.9382228609" lon="-1.8364396971"><ele>251.52</ele><time>2011-11-30T10:43:12Z</time></trkpt><trkpt lat="51.9382288959" lon="-1.8363744020"><ele>250.56</ele><time>2011-11-30T10:43:29Z</time></trkpt><trkpt lat="51.9382162392" lon="-1.8361597415"><ele>251.04</ele><time>2011-11-30T10:43:47Z</time></trkpt><trkpt lat="51.9382162392" lon="-1.8361597415"><ele>250.56</ele><time>2011-11-30T10:44:07Z</time></trkpt><trkpt lat="51.9382177480" lon="-1.8361363560"><ele>250.56</ele><time>2011-11-30T10:44:26Z</time></trkpt><trkpt lat="51.9382152334" lon="-1.8361104559"><ele>250.08</ele><time>2011-11-30T10:44:55Z</time></trkpt><trkpt lat="51.9381967932" lon="-1.8359320052"><ele>249.60</ele><time>2011-11-30T10:45:12Z</time></trkpt><trkpt lat="51.9381944463" lon="-1.8358939514"><ele>250.56</ele><time>2011-11-30T10:45:14Z</time></trkpt><trkpt lat="51.9381894171" lon="-1.8356400635"><ele>250.08</ele><time>2011-11-30T10:45:29Z</time></trkpt><trkpt lat="51.9381839689" lon="-1.8354269955"><ele>249.12</ele><time>2011-11-30T10:45:41Z</time></trkpt><trkpt lat="51.9381884113" lon="-1.8353746925"><ele>249.12</ele><time>2011-11-30T10:45:44Z</time></trkpt><trkpt lat="51.9381920993" lon="-1.8350881152"><ele>249.12</ele><time>2011-11-30T10:46:01Z</time></trkpt><trkpt lat="51.9381889980" lon="-1.8350234907"><ele>249.12</ele><time>2011-11-30T10:46:06Z</time></trkpt><trkpt lat="51.9381750841" lon="-1.8349729478"><ele>248.64</ele><time>2011-11-30T10:46:09Z</time></trkpt><trkpt lat="51.9381471723" lon="-1.8348881230"><ele>248.64</ele><time>2011-11-30T10:46:14Z</time></trkpt><trkpt lat="51.9380522054" lon="-1.8347250111"><ele>248.64</ele><time>2011-11-30T10:46:24Z</time></trkpt><trkpt lat="51.9379727449" lon="-1.8346461374"><ele>248.16</ele><time>2011-11-30T10:46:38Z</time></trkpt><trkpt lat="51.9378856570" lon="-1.8345371727"><ele>248.16</ele><time>2011-11-30T10:46:49Z</time></trkpt><trkpt lat="51.9378252234" lon="-1.8343585543"><ele>248.16</ele><time>2011-11-30T10:47:02Z</time></trkpt><trkpt lat="51.9378226250" lon="-1.8341717217"><ele>248.16</ele><time>2011-11-30T10:47:14Z</time></trkpt><trkpt lat="51.9378530513" lon="-1.8341179937"><ele>248.16</ele><time>2011-11-30T10:47:33Z</time></trkpt><trkpt lat="51.9379700627" lon="-1.8341363501"><ele>248.16</ele><time>2011-11-30T10:47:48Z</time></trkpt><trkpt lat="51.9381003175" lon="-1.8342214264"><ele>248.16</ele><time>2011-11-30T10:48:05Z</time></trkpt><trkpt lat="51.9381572306" lon="-1.8341734819"><ele>246.72</ele><time>2011-11-30T10:48:18Z</time></trkpt><trkpt lat="51.9382321648" lon="-1.8340325821"><ele>245.75</ele><time>2011-11-30T10:48:34Z</time></trkpt><trkpt lat="51.9382696319" lon="-1.8338975497"><ele>246.23</ele><time>2011-11-30T10:48:46Z</time></trkpt><trkpt lat="51.9382948615" lon="-1.8336377945"><ele>246.23</ele><time>2011-11-30T10:49:03Z</time></trkpt><trkpt lat="51.9382929336" lon="-1.8333839905"><ele>245.75</ele><time>2011-11-30T10:49:18Z</time></trkpt><trkpt lat="51.9382822048" lon="-1.8332388997"><ele>245.75</ele><time>2011-11-30T10:49:27Z</time></trkpt><trkpt lat="51.9382384513" lon="-1.8329314515"><ele>244.79</ele><time>2011-11-30T10:49:44Z</time></trkpt><trkpt lat="51.9382335898" lon="-1.8328939006"><ele>245.27</ele><time>2011-11-30T10:49:47Z</time></trkpt><trkpt lat="51.9382071868" lon="-1.8326781504"><ele>244.79</ele><time>2011-11-30T10:50:02Z</time></trkpt><trkpt lat="51.9381986372" lon="-1.8326321337"><ele>244.31</ele><time>2011-11-30T10:50:05Z</time></trkpt><trkpt lat="51.9381702226" lon="-1.8324178923"><ele>244.31</ele><time>2011-11-30T10:50:21Z</time></trkpt><trkpt lat="51.9381255470" lon="-1.8321223464"><ele>243.35</ele><time>2011-11-30T10:50:36Z</time></trkpt><trkpt lat="51.9380848948" lon="-1.8319230247"><ele>242.87</ele><time>2011-11-30T10:50:47Z</time></trkpt><trkpt lat="51.9380515348" lon="-1.8316723220"><ele>243.35</ele><time>2011-11-30T10:51:01Z</time></trkpt><trkpt lat="51.9380304962" lon="-1.8315635249"><ele>243.35</ele><time>2011-11-30T10:51:08Z</time></trkpt><trkpt lat="51.9380194321" lon="-1.8314804602"><ele>244.31</ele><time>2011-11-30T10:51:12Z</time></trkpt><trkpt lat="51.9379690569" lon="-1.8312141672"><ele>242.39</ele><time>2011-11-30T10:51:27Z</time></trkpt><trkpt lat="51.9379567355" lon="-1.8311405741"><ele>241.91</ele><time>2011-11-30T10:51:32Z</time></trkpt><trkpt lat="51.9378851540" lon="-1.8308834173"><ele>241.91</ele><time>2011-11-30T10:51:47Z</time></trkpt><trkpt lat="51.9378225412" lon="-1.8305897992"><ele>240.47</ele><time>2011-11-30T10:52:04Z</time></trkpt><trkpt lat="51.9377782010" lon="-1.8304278608"><ele>240.47</ele><time>2011-11-30T10:52:13Z</time></trkpt><trkpt lat="51.9377448410" lon="-1.8303090893"><ele>240.47</ele><time>2011-11-30T10:52:20Z</time></trkpt><trkpt lat="51.9377284963" lon="-1.8302607257"><ele>239.99</ele><time>2011-11-30T10:52:23Z</time></trkpt><trkpt lat="51.9376566634" lon="-1.8299719691"><ele>239.02</ele><time>2011-11-30T10:52:39Z</time></trkpt><trkpt lat="51.9375939667" lon="-1.8297500163"><ele>239.02</ele><time>2011-11-30T10:52:52Z</time></trkpt><trkpt lat="51.9375730120" lon="-1.8296885770"><ele>239.02</ele><time>2011-11-30T10:52:56Z</time></trkpt><trkpt lat="51.9375562482" lon="-1.8296294007"><ele>239.02</ele><time>2011-11-30T10:53:00Z</time></trkpt><trkpt lat="51.9375505485" lon="-1.8295990583"><ele>239.02</ele><time>2011-11-30T10:53:02Z</time></trkpt><trkpt lat="51.9375089742" lon="-1.8294720724"><ele>238.54</ele><time>2011-11-30T10:53:09Z</time></trkpt><trkpt lat="51.9374721777" lon="-1.8292950466"><ele>238.54</ele><time>2011-11-30T10:53:23Z</time></trkpt><trkpt lat="51.9374876004" lon="-1.8292320147"><ele>238.06</ele><time>2011-11-30T10:53:38Z</time></trkpt><trkpt lat="51.9374842476" lon="-1.8292228784"><ele>238.54</ele><time>2011-11-30T10:53:55Z</time></trkpt><trkpt lat="51.9374842476" lon="-1.8292228784"><ele>238.54</ele><time>2011-11-30T10:54:26Z</time></trkpt><trkpt lat="51.9375033583" lon="-1.8291854952"><ele>239.02</ele><time>2011-11-30T10:54:47Z</time></trkpt><trkpt lat="51.9375464413" lon="-1.8291279115"><ele>238.54</ele><time>2011-11-30T10:55:00Z</time></trkpt><trkpt lat="51.9375464413" lon="-1.8291279115"><ele>238.54</ele><time>2011-11-30T10:55:23Z</time></trkpt><trkpt lat="51.9375467766" lon="-1.8291268218"><ele>238.54</ele><time>2011-11-30T10:55:49Z</time></trkpt><trkpt lat="51.9375509676" lon="-1.8291227985"><ele>238.06</ele><time>2011-11-30T10:56:06Z</time></trkpt><trkpt lat="51.9375585113" lon="-1.8291165959"><ele>238.54</ele><time>2011-11-30T10:56:28Z</time></trkpt><trkpt lat="51.9375603553" lon="-1.8291107286"><ele>238.06</ele><time>2011-11-30T10:56:48Z</time></trkpt><trkpt lat="51.9375603553" lon="-1.8291107286"><ele>238.54</ele><time>2011-11-30T10:57:10Z</time></trkpt><trkpt lat="51.9375602715" lon="-1.8291082140"><ele>238.06</ele><time>2011-11-30T10:57:39Z</time></trkpt><trkpt lat="51.9375602715" lon="-1.8291082140"><ele>238.54</ele><time>2011-11-30T10:58:00Z</time></trkpt><trkpt lat="51.9375534821" lon="-1.8291195296"><ele>238.06</ele><time>2011-11-30T10:58:15Z</time></trkpt><trkpt lat="51.9375524763" lon="-1.8291189428"><ele>238.54</ele><time>2011-11-30T10:58:44Z</time></trkpt><trkpt lat="51.9375562482" lon="-1.8291142490"><ele>238.06</ele><time>2011-11-30T10:59:03Z</time></trkpt><trkpt lat="51.9375483692" lon="-1.8291279115"><ele>238.06</ele><time>2011-11-30T10:59:24Z</time></trkpt><trkpt lat="51.9375483692" lon="-1.8291279115"><ele>238.06</ele><time>2011-11-30T10:59:49Z</time></trkpt><trkpt lat="51.9375565834" lon="-1.8290989101"><ele>240.47</ele><time>2011-11-30T11:00:05Z</time></trkpt><trkpt lat="51.9375551585" lon="-1.8290998321"><ele>238.54</ele><time>2011-11-30T11:00:22Z</time></trkpt><trkpt lat="51.9375441782" lon="-1.8291053642"><ele>238.54</ele><time>2011-11-30T11:00:43Z</time></trkpt><trkpt lat="51.9375441782" lon="-1.8291053642"><ele>239.02</ele><time>2011-11-30T11:01:06Z</time></trkpt><trkpt lat="51.9375478663" lon="-1.8291017599"><ele>234.70</ele><time>2011-11-30T11:01:20Z</time></trkpt><trkpt lat="51.9375500455" lon="-1.8290989101"><ele>240.95</ele><time>2011-11-30T11:01:22Z</time></trkpt><trkpt lat="51.9375500455" lon="-1.8290989101"><ele>238.54</ele><time>2011-11-30T11:01:23Z</time></trkpt><trkpt lat="51.9375500455" lon="-1.8290989101"><ele>238.06</ele><time>2011-11-30T11:01:25Z</time></trkpt><trkpt lat="51.9375500455" lon="-1.8290989101"><ele>245.27</ele><time>2011-11-30T11:01:27Z</time></trkpt><trkpt lat="51.9375500455" lon="-1.8290989101"><ele>239.02</ele><time>2011-11-30T11:01:28Z</time></trkpt><trkpt lat="51.9375500455" lon="-1.8290989101"><ele>229.89</ele><time>2011-11-30T11:01:42Z</time></trkpt><trkpt lat="51.9375500455" lon="-1.8290989101"><ele>239.02</ele><time>2011-11-30T11:01:43Z</time></trkpt><trkpt lat="51.9375500455" lon="-1.8290989101"><ele>234.70</ele><time>2011-11-30T11:02:00Z</time></trkpt><trkpt lat="51.9375507161" lon="-1.8290999159"><ele>238.06</ele><time>2011-11-30T11:02:02Z</time></trkpt><trkpt lat="51.9375507161" lon="-1.8290999159"><ele>241.43</ele><time>2011-11-30T11:02:13Z</time></trkpt><trkpt lat="51.9375507161" lon="-1.8290999159"><ele>234.70</ele><time>2011-11-30T11:02:14Z</time></trkpt><trkpt lat="51.9375507161" lon="-1.8290999159"><ele>243.83</ele><time>2011-11-30T11:02:15Z</time></trkpt><trkpt lat="51.9375507161" lon="-1.8290999159"><ele>238.54</ele><time>2011-11-30T11:02:16Z</time></trkpt><trkpt lat="51.9375505485" lon="-1.8291025143"><ele>239.02</ele><time>2011-11-30T11:02:42Z</time></trkpt><trkpt lat="51.9375505485" lon="-1.8291025143"><ele>239.02</ele><time>2011-11-30T11:03:16Z</time></trkpt><trkpt lat="51.9375519734" lon="-1.8291036878"><ele>239.02</ele><time>2011-11-30T11:03:35Z</time></trkpt><trkpt lat="51.9375519734" lon="-1.8291036878"><ele>236.62</ele><time>2011-11-30T11:03:37Z</time></trkpt><trkpt lat="51.9375519734" lon="-1.8291036878"><ele>241.43</ele><time>2011-11-30T11:03:38Z</time></trkpt><trkpt lat="51.9375519734" lon="-1.8291036878"><ele>239.02</ele><time>2011-11-30T11:03:39Z</time></trkpt><trkpt lat="51.9375476148" lon="-1.8291065376"><ele>238.54</ele><time>2011-11-30T11:03:54Z</time></trkpt><trkpt lat="51.9375610258" lon="-1.8291069567"><ele>232.78</ele><time>2011-11-30T11:04:07Z</time></trkpt><trkpt lat="51.9375610258" lon="-1.8291069567"><ele>241.43</ele><time>2011-11-30T11:04:08Z</time></trkpt><trkpt lat="51.9375610258" lon="-1.8291069567"><ele>238.06</ele><time>2011-11-30T11:04:29Z</time></trkpt><trkpt lat="51.9375461899" lon="-1.8291043583"><ele>239.02</ele><time>2011-11-30T11:04:47Z</time></trkpt><trkpt lat="51.9375461899" lon="-1.8291043583"><ele>239.02</ele><time>2011-11-30T11:05:09Z</time></trkpt><trkpt lat="51.9375510514" lon="-1.8291015085"><ele>239.02</ele><time>2011-11-30T11:05:29Z</time></trkpt><trkpt lat="51.9375521410" lon="-1.8290988263"><ele>238.54</ele><time>2011-11-30T11:05:50Z</time></trkpt><trkpt lat="51.9375251513" lon="-1.8291354552"><ele>238.06</ele><time>2011-11-30T11:06:01Z</time></trkpt><trkpt lat="51.9375057891" lon="-1.8291730899"><ele>238.06</ele><time>2011-11-30T11:06:04Z</time></trkpt><trkpt lat="51.9374183659" lon="-1.8290927913"><ele>239.02</ele><time>2011-11-30T11:06:18Z</time></trkpt><trkpt lat="51.9373992551" lon="-1.8290403206"><ele>239.51</ele><time>2011-11-30T11:06:22Z</time></trkpt><trkpt lat="51.9373344630" lon="-1.8288212176"><ele>238.54</ele><time>2011-11-30T11:06:37Z</time></trkpt><trkpt lat="51.9372990075" lon="-1.8286954053"><ele>238.06</ele><time>2011-11-30T11:06:46Z</time></trkpt><trkpt lat="51.9372903742" lon="-1.8286530767"><ele>238.54</ele><time>2011-11-30T11:06:49Z</time></trkpt><trkpt lat="51.9372118358" lon="-1.8284133542"><ele>237.10</ele><time>2011-11-30T11:07:05Z</time></trkpt><trkpt lat="51.9371407572" lon="-1.8281561974"><ele>236.14</ele><time>2011-11-30T11:07:21Z</time></trkpt><trkpt lat="51.9371011108" lon="-1.8280186504"><ele>236.14</ele><time>2011-11-30T11:07:32Z</time></trkpt><trkpt lat="51.9370723609" lon="-1.8279385194"><ele>236.14</ele><time>2011-11-30T11:07:38Z</time></trkpt><trkpt lat="51.9370504841" lon="-1.8278632499"><ele>236.62</ele><time>2011-11-30T11:07:43Z</time></trkpt><trkpt lat="51.9369955827" lon="-1.8276780937"><ele>235.66</ele><time>2011-11-30T11:07:54Z</time></trkpt><trkpt lat="51.9369368255" lon="-1.8274775147"><ele>234.70</ele><time>2011-11-30T11:08:07Z</time></trkpt><trkpt lat="51.9368944131" lon="-1.8273149896"><ele>234.70</ele><time>2011-11-30T11:08:18Z</time></trkpt><trkpt lat="51.9368862826" lon="-1.8272839766"><ele>235.18</ele><time>2011-11-30T11:08:20Z</time></trkpt><trkpt lat="51.9368181378" lon="-1.8270151690"><ele>234.70</ele><time>2011-11-30T11:08:35Z</time></trkpt><trkpt lat="51.9367547706" lon="-1.8267902825"><ele>233.74</ele><time>2011-11-30T11:08:50Z</time></trkpt><trkpt lat="51.9367359113" lon="-1.8267161865"><ele>233.74</ele><time>2011-11-30T11:08:55Z</time></trkpt><trkpt lat="51.9367260206" lon="-1.8266826589"><ele>233.26</ele><time>2011-11-30T11:08:57Z</time></trkpt><trkpt lat="51.9366798364" lon="-1.8264988437"><ele>233.26</ele><time>2011-11-30T11:09:08Z</time></trkpt><trkpt lat="51.9366380107" lon="-1.8263454549"><ele>232.30</ele><time>2011-11-30T11:09:18Z</time></trkpt><trkpt lat="51.9365619030" lon="-1.8261027988"><ele>231.81</ele><time>2011-11-30T11:09:33Z</time></trkpt><trkpt lat="51.9364985358" lon="-1.8258950952"><ele>231.33</ele><time>2011-11-30T11:09:47Z</time></trkpt><trkpt lat="51.9364273734" lon="-1.8256607372"><ele>231.33</ele><time>2011-11-30T11:10:03Z</time></trkpt><trkpt lat="51.9364134595" lon="-1.8256303947"><ele>231.33</ele><time>2011-11-30T11:10:05Z</time></trkpt><trkpt lat="51.9363357592" lon="-1.8254052568"><ele>230.37</ele><time>2011-11-30T11:10:20Z</time></trkpt><trkpt lat="51.9362601545" lon="-1.8252036721"><ele>230.85</ele><time>2011-11-30T11:10:34Z</time></trkpt><trkpt lat="51.9362080190" lon="-1.8250412308"><ele>229.89</ele><time>2011-11-30T11:10:48Z</time></trkpt><trkpt lat="51.9361345936" lon="-1.8248174340"><ele>229.41</ele><time>2011-11-30T11:11:03Z</time></trkpt><trkpt lat="51.9360578991" lon="-1.8245259952"><ele>229.41</ele><time>2011-11-30T11:11:20Z</time></trkpt><trkpt lat="51.9360045064" lon="-1.8242825847"><ele>228.45</ele><time>2011-11-30T11:11:36Z</time></trkpt><trkpt lat="51.9359487668" lon="-1.8240562733"><ele>228.45</ele><time>2011-11-30T11:11:48Z</time></trkpt><trkpt lat="51.9359120540" lon="-1.8238695245"><ele>228.45</ele><time>2011-11-30T11:12:00Z</time></trkpt><trkpt lat="51.9359016605" lon="-1.8238219991"><ele>228.93</ele><time>2011-11-30T11:12:03Z</time></trkpt><trkpt lat="51.9358481001" lon="-1.8236949295"><ele>228.45</ele><time>2011-11-30T11:12:18Z</time></trkpt><trkpt lat="51.9358460046" lon="-1.8236953486"><ele>224.61</ele><time>2011-11-30T11:12:21Z</time></trkpt><trkpt lat="51.9358460046" lon="-1.8236953486"><ele>234.70</ele><time>2011-11-30T11:12:22Z</time></trkpt><trkpt lat="51.9358454179" lon="-1.8237004615"><ele>226.53</ele><time>2011-11-30T11:12:23Z</time></trkpt><trkpt lat="51.9358454179" lon="-1.8237004615"><ele>228.45</ele><time>2011-11-30T11:12:35Z</time></trkpt><trkpt lat="51.9358454179" lon="-1.8237004615"><ele>232.30</ele><time>2011-11-30T11:12:36Z</time></trkpt><trkpt lat="51.9358454179" lon="-1.8237004615"><ele>228.93</ele><time>2011-11-30T11:12:37Z</time></trkpt><trkpt lat="51.9358454179" lon="-1.8237004615"><ele>227.97</ele><time>2011-11-30T11:12:39Z</time></trkpt><trkpt lat="51.9358354434" lon="-1.8236352503"><ele>228.45</ele><time>2011-11-30T11:12:56Z</time></trkpt><trkpt lat="51.9358279835" lon="-1.8235684466"><ele>228.93</ele><time>2011-11-30T11:13:00Z</time></trkpt><trkpt lat="51.9358145725" lon="-1.8235165626"><ele>228.93</ele><time>2011-11-30T11:13:03Z</time></trkpt><trkpt lat="51.9357493613" lon="-1.8232685421"><ele>229.41</ele><time>2011-11-30T11:13:19Z</time></trkpt><trkpt lat="51.9357407279" lon="-1.8232287280"><ele>229.41</ele><time>2011-11-30T11:13:22Z</time></trkpt><trkpt lat="51.9356954657" lon="-1.8230883311"><ele>228.93</ele><time>2011-11-30T11:13:31Z</time></trkpt><trkpt lat="51.9356838148" lon="-1.8230596650"><ele>228.93</ele><time>2011-11-30T11:13:33Z</time></trkpt><trkpt lat="51.9356341101" lon="-1.8228182662"><ele>229.41</ele><time>2011-11-30T11:13:48Z</time></trkpt><trkpt lat="51.9356125686" lon="-1.8225553259"><ele>228.45</ele><time>2011-11-30T11:14:04Z</time></trkpt><trkpt lat="51.9355945475" lon="-1.8224485405"><ele>227.97</ele><time>2011-11-30T11:14:11Z</time></trkpt><trkpt lat="51.9355908595" lon="-1.8223995063"><ele>228.45</ele><time>2011-11-30T11:14:14Z</time></trkpt><trkpt lat="51.9355662167" lon="-1.8221252505"><ele>228.45</ele><time>2011-11-30T11:14:29Z</time></trkpt><trkpt lat="51.9355492853" lon="-1.8219639827"><ele>227.97</ele><time>2011-11-30T11:14:38Z</time></trkpt><trkpt lat="51.9355305936" lon="-1.8218577839"><ele>227.49</ele><time>2011-11-30T11:14:45Z</time></trkpt><trkpt lat="51.9354848284" lon="-1.8216465600"><ele>227.97</ele><time>2011-11-30T11:14:59Z</time></trkpt><trkpt lat="51.9354444277" lon="-1.8215476535"><ele>227.01</ele><time>2011-11-30T11:15:06Z</time></trkpt><trkpt lat="51.9353641290" lon="-1.8214186560"><ele>227.01</ele><time>2011-11-30T11:15:15Z</time></trkpt><trkpt lat="51.9351928029" lon="-1.8212828692"><ele>225.09</ele><time>2011-11-30T11:15:31Z</time></trkpt><trkpt lat="51.9351313636" lon="-1.8212557118"><ele>224.61</ele><time>2011-11-30T11:15:36Z</time></trkpt><trkpt lat="51.9350828324" lon="-1.8212357629"><ele>223.64</ele><time>2011-11-30T11:15:40Z</time></trkpt><trkpt lat="51.9349715207" lon="-1.8211732339"><ele>223.64</ele><time>2011-11-30T11:15:55Z</time></trkpt><trkpt lat="51.9349413458" lon="-1.8211598229"><ele>223.64</ele><time>2011-11-30T11:15:58Z</time></trkpt><trkpt lat="51.9349207263" lon="-1.8211629242"><ele>224.12</ele><time>2011-11-30T11:16:00Z</time></trkpt><trkpt lat="51.9347876217" lon="-1.8210982997"><ele>223.64</ele><time>2011-11-30T11:16:14Z</time></trkpt><trkpt lat="51.9347610511" lon="-1.8210935220"><ele>223.16</ele><time>2011-11-30T11:16:16Z</time></trkpt><trkpt lat="51.9346490689" lon="-1.8210425600"><ele>224.12</ele><time>2011-11-30T11:16:31Z</time></trkpt><trkpt lat="51.9346490689" lon="-1.8210425600"><ele>223.64</ele><time>2011-11-30T11:16:44Z</time></trkpt><trkpt lat="51.9346315507" lon="-1.8210325018"><ele>223.64</ele><time>2011-11-30T11:16:47Z</time></trkpt><trkpt lat="51.9344998710" lon="-1.8210831285"><ele>223.64</ele><time>2011-11-30T11:17:00Z</time></trkpt><trkpt lat="51.9343456440" lon="-1.8212011456"><ele>223.64</ele><time>2011-11-30T11:17:15Z</time></trkpt><trkpt lat="51.9341918360" lon="-1.8213241920"><ele>223.64</ele><time>2011-11-30T11:17:29Z</time></trkpt><trkpt lat="51.9341041613" lon="-1.8214014731"><ele>224.12</ele><time>2011-11-30T11:17:37Z</time></trkpt><trkpt lat="51.9339654408" lon="-1.8215171434"><ele>223.64</ele><time>2011-11-30T11:17:50Z</time></trkpt><trkpt lat="51.9338206854" lon="-1.8216434587"><ele>223.64</ele><time>2011-11-30T11:18:02Z</time></trkpt><trkpt lat="51.9336669613" lon="-1.8217681814"><ele>224.12</ele><time>2011-11-30T11:18:16Z</time></trkpt><trkpt lat="51.9335212838" lon="-1.8218890484"><ele>224.12</ele><time>2011-11-30T11:18:30Z</time></trkpt><trkpt lat="51.9334412366" lon="-1.8219404295"><ele>224.61</ele><time>2011-11-30T11:18:43Z</time></trkpt><trkpt lat="51.9334082119" lon="-1.8219609652"><ele>224.12</ele><time>2011-11-30T11:19:02Z</time></trkpt><trkpt lat="51.9334082119" lon="-1.8219609652"><ele>224.12</ele><time>2011-11-30T11:19:23Z</time></trkpt><trkpt lat="51.9333483651" lon="-1.8220239133"><ele>223.64</ele><time>2011-11-30T11:19:35Z</time></trkpt><trkpt lat="51.9333010912" lon="-1.8220673315"><ele>225.57</ele><time>2011-11-30T11:19:42Z</time></trkpt><trkpt lat="51.9332688209" lon="-1.8220876995"><ele>224.61</ele><time>2011-11-30T11:19:47Z</time></trkpt><trkpt lat="51.9331798889" lon="-1.8221645616"><ele>224.61</ele><time>2011-11-30T11:19:59Z</time></trkpt><trkpt lat="51.9331330340" lon="-1.8222001847"><ele>225.57</ele><time>2011-11-30T11:20:05Z</time></trkpt><trkpt lat="51.9329767115" lon="-1.8223238178"><ele>225.09</ele><time>2011-11-30T11:20:22Z</time></trkpt><trkpt lat="51.9328255020" lon="-1.8224405777"><ele>224.61</ele><time>2011-11-30T11:20:36Z</time></trkpt><trkpt lat="51.9326599594" lon="-1.8225746043"><ele>224.12</ele><time>2011-11-30T11:20:52Z</time></trkpt><trkpt lat="51.9325182214" lon="-1.8226892687"><ele>223.64</ele><time>2011-11-30T11:21:06Z</time></trkpt><trkpt lat="51.9323455542" lon="-1.8228506204"><ele>223.16</ele><time>2011-11-30T11:21:22Z</time></trkpt><trkpt lat="51.9321640022" lon="-1.8229931965"><ele>223.64</ele><time>2011-11-30T11:21:38Z</time></trkpt><trkpt lat="51.9320291374" lon="-1.8231453281"><ele>224.12</ele><time>2011-11-30T11:21:53Z</time></trkpt><trkpt lat="51.9319903292" lon="-1.8233232759"><ele>225.09</ele><time>2011-11-30T11:22:07Z</time></trkpt><trkpt lat="51.9320007227" lon="-1.8234964460"><ele>224.61</ele><time>2011-11-30T11:22:19Z</time></trkpt><trkpt lat="51.9320268743" lon="-1.8236957677"><ele>225.57</ele><time>2011-11-30T11:22:33Z</time></trkpt><trkpt lat="51.9320364296" lon="-1.8238943350"><ele>225.57</ele><time>2011-11-30T11:22:46Z</time></trkpt><trkpt lat="51.9320399500" lon="-1.8241326325"><ele>226.05</ele><time>2011-11-30T11:23:01Z</time></trkpt><trkpt lat="51.9320683647" lon="-1.8243483827"><ele>226.53</ele><time>2011-11-30T11:23:15Z</time></trkpt><trkpt lat="51.9320728909" lon="-1.8244787212"><ele>226.05</ele><time>2011-11-30T11:23:23Z</time></trkpt><trkpt lat="51.9320723042" lon="-1.8246162683"><ele>226.53</ele><time>2011-11-30T11:23:38Z</time></trkpt><trkpt lat="51.9320739806" lon="-1.8246327806"><ele>226.05</ele><time>2011-11-30T11:23:44Z</time></trkpt><trkpt lat="51.9320842903" lon="-1.8247440923"><ele>226.53</ele><time>2011-11-30T11:23:51Z</time></trkpt><trkpt lat="51.9321188238" lon="-1.8249526341"><ele>226.53</ele><time>2011-11-30T11:24:04Z</time></trkpt><trkpt lat="51.9321417902" lon="-1.8251485191"><ele>227.01</ele><time>2011-11-30T11:24:17Z</time></trkpt><trkpt lat="51.9321476575" lon="-1.8254452385"><ele>226.53</ele><time>2011-11-30T11:24:31Z</time></trkpt><trkpt lat="51.9321687799" lon="-1.8256803509"><ele>227.49</ele><time>2011-11-30T11:24:44Z</time></trkpt><trkpt lat="51.9321692828" lon="-1.8259155471"><ele>227.49</ele><time>2011-11-30T11:25:00Z</time></trkpt><trkpt lat="51.9320652634" lon="-1.8261786550"><ele>227.97</ele><time>2011-11-30T11:25:16Z</time></trkpt><trkpt lat="51.9320211746" lon="-1.8262806628"><ele>227.97</ele><time>2011-11-30T11:25:31Z</time></trkpt><trkpt lat="51.9320087694" lon="-1.8263171241"><ele>227.97</ele><time>2011-11-30T11:25:34Z</time></trkpt><trkpt lat="51.9319845457" lon="-1.8263529148"><ele>227.97</ele><time>2011-11-30T11:25:37Z</time></trkpt><trkpt lat="51.9318611640" lon="-1.8266011868"><ele>227.97</ele><time>2011-11-30T11:25:53Z</time></trkpt><trkpt lat="51.9317634311" lon="-1.8267507199"><ele>228.45</ele><time>2011-11-30T11:26:08Z</time></trkpt><trkpt lat="51.9316545501" lon="-1.8269454315"><ele>228.45</ele><time>2011-11-30T11:26:21Z</time></trkpt><trkpt lat="51.9315600861" lon="-1.8270866666"><ele>228.45</ele><time>2011-11-30T11:26:30Z</time></trkpt><trkpt lat="51.9314890914" lon="-1.8271739222"><ele>228.45</ele><time>2011-11-30T11:26:45Z</time></trkpt><trkpt lat="51.9314823858" lon="-1.8271835614"><ele>228.93</ele><time>2011-11-30T11:26:46Z</time></trkpt><trkpt lat="51.9314376265" lon="-1.8272945378"><ele>228.93</ele><time>2011-11-30T11:26:56Z</time></trkpt><trkpt lat="51.9313535560" lon="-1.8274493515"><ele>228.45</ele><time>2011-11-30T11:27:06Z</time></trkpt><trkpt lat="51.9312445074" lon="-1.8276117090"><ele>228.93</ele><time>2011-11-30T11:27:24Z</time></trkpt><trkpt lat="51.9312408194" lon="-1.8276150618"><ele>228.45</ele><time>2011-11-30T11:27:40Z</time></trkpt><trkpt lat="51.9311851636" lon="-1.8277049996"><ele>227.49</ele><time>2011-11-30T11:27:53Z</time></trkpt><trkpt lat="51.9310445152" lon="-1.8278976995"><ele>227.97</ele><time>2011-11-30T11:28:11Z</time></trkpt><trkpt lat="51.9308956526" lon="-1.8281411938"><ele>227.01</ele><time>2011-11-30T11:28:28Z</time></trkpt><trkpt lat="51.9308712613" lon="-1.8281784933"><ele>228.45</ele><time>2011-11-30T11:28:31Z</time></trkpt><trkpt lat="51.9308178686" lon="-1.8282653298"><ele>228.45</ele><time>2011-11-30T11:28:40Z</time></trkpt><trkpt lat="51.9307266735" lon="-1.8283892144"><ele>227.49</ele><time>2011-11-30T11:28:56Z</time></trkpt><trkpt lat="51.9306255877" lon="-1.8285870273"><ele>227.49</ele><time>2011-11-30T11:29:10Z</time></trkpt><trkpt lat="51.9304519147" lon="-1.8288672343"><ele>227.97</ele><time>2011-11-30T11:29:30Z</time></trkpt><trkpt lat="51.9303034712" lon="-1.8290898576"><ele>227.49</ele><time>2011-11-30T11:29:47Z</time></trkpt><trkpt lat="51.9301821012" lon="-1.8292893469"><ele>227.97</ele><time>2011-11-30T11:30:04Z</time></trkpt><trkpt lat="51.9300743937" lon="-1.8294652831"><ele>228.45</ele><time>2011-11-30T11:30:17Z</time></trkpt><trkpt lat="51.9299409539" lon="-1.8296601623"><ele>227.97</ele><time>2011-11-30T11:30:34Z</time></trkpt><trkpt lat="51.9298225176" lon="-1.8298757449"><ele>227.97</ele><time>2011-11-30T11:30:50Z</time></trkpt><trkpt lat="51.9297736511" lon="-1.8299764115"><ele>227.97</ele><time>2011-11-30T11:30:57Z</time></trkpt><trkpt lat="51.9296780974" lon="-1.8301648367"><ele>227.01</ele><time>2011-11-30T11:31:14Z</time></trkpt><trkpt lat="51.9295525365" lon="-1.8304093368"><ele>227.01</ele><time>2011-11-30T11:31:30Z</time></trkpt><trkpt lat="51.9294467568" lon="-1.8305961695"><ele>227.01</ele><time>2011-11-30T11:31:45Z</time></trkpt><trkpt lat="51.9293753430" lon="-1.8307068944"><ele>226.53</ele><time>2011-11-30T11:31:55Z</time></trkpt><trkpt lat="51.9293344393" lon="-1.8308346346"><ele>227.01</ele><time>2011-11-30T11:32:09Z</time></trkpt><trkpt lat="51.9292248879" lon="-1.8310642149"><ele>226.53</ele><time>2011-11-30T11:32:24Z</time></trkpt><trkpt lat="51.9291098882" lon="-1.8312504608"><ele>225.57</ele><time>2011-11-30T11:32:39Z</time></trkpt><trkpt lat="51.9290969800" lon="-1.8312764447"><ele>226.05</ele><time>2011-11-30T11:32:41Z</time></trkpt><trkpt lat="51.9290643744" lon="-1.8315319251"><ele>226.05</ele><time>2011-11-30T11:32:56Z</time></trkpt><trkpt lat="51.9290556572" lon="-1.8317521177"><ele>226.05</ele><time>2011-11-30T11:33:10Z</time></trkpt><trkpt lat="51.9290507119" lon="-1.8318026606"><ele>227.01</ele><time>2011-11-30T11:33:14Z</time></trkpt><trkpt lat="51.9290450960" lon="-1.8320551235"><ele>225.09</ele><time>2011-11-30T11:33:28Z</time></trkpt><trkpt lat="51.9290429167" lon="-1.8322609831"><ele>225.09</ele><time>2011-11-30T11:33:41Z</time></trkpt><trkpt lat="51.9290448446" lon="-1.8322765734"><ele>225.57</ele><time>2011-11-30T11:33:42Z</time></trkpt><trkpt lat="51.9290710799" lon="-1.8324950896"><ele>225.57</ele><time>2011-11-30T11:33:55Z</time></trkpt><trkpt lat="51.9290694874" lon="-1.8325121887"><ele>225.57</ele><time>2011-11-30T11:33:56Z</time></trkpt><trkpt lat="51.9290785398" lon="-1.8325478118"><ele>225.57</ele><time>2011-11-30T11:33:58Z</time></trkpt><trkpt lat="51.9290808029" lon="-1.8326395098"><ele>225.09</ele><time>2011-11-30T11:34:03Z</time></trkpt><trkpt lat="51.9290752709" lon="-1.8326847721"><ele>225.57</ele><time>2011-11-30T11:34:06Z</time></trkpt><trkpt lat="51.9290782046" lon="-1.8327786494"><ele>225.09</ele><time>2011-11-30T11:34:18Z</time></trkpt><trkpt lat="51.9290885143" lon="-1.8328415975"><ele>228.93</ele><time>2011-11-30T11:34:32Z</time></trkpt><trkpt lat="51.9290885143" lon="-1.8328415975"><ele>227.97</ele><time>2011-11-30T11:34:33Z</time></trkpt><trkpt lat="51.9290885143" lon="-1.8328415975"><ele>225.09</ele><time>2011-11-30T11:34:35Z</time></trkpt><trkpt lat="51.9290885143" lon="-1.8328415975"><ele>230.37</ele><time>2011-11-30T11:34:41Z</time></trkpt><trkpt lat="51.9290885143" lon="-1.8328415975"><ele>225.09</ele><time>2011-11-30T11:34:42Z</time></trkpt><trkpt lat="51.9290885143" lon="-1.8328415975"><ele>225.09</ele><time>2011-11-30T11:35:10Z</time></trkpt><trkpt lat="51.9291092176" lon="-1.8330051284"><ele>224.61</ele><time>2011-11-30T11:35:25Z</time></trkpt><trkpt lat="51.9291461818" lon="-1.8331667315"><ele>224.61</ele><time>2011-11-30T11:35:39Z</time></trkpt><trkpt lat="51.9291455951" lon="-1.8331855070"><ele>225.09</ele><time>2011-11-30T11:35:53Z</time></trkpt><trkpt lat="51.9291381352" lon="-1.8332087249"><ele>225.09</ele><time>2011-11-30T11:36:11Z</time></trkpt><trkpt lat="51.9291398954" lon="-1.8332238123"><ele>224.61</ele><time>2011-11-30T11:36:12Z</time></trkpt><trkpt lat="51.9291545637" lon="-1.8333057873"><ele>225.09</ele><time>2011-11-30T11:36:17Z</time></trkpt><trkpt lat="51.9291678071" lon="-1.8334146682"><ele>225.09</ele><time>2011-11-30T11:36:28Z</time></trkpt><trkpt lat="51.9291916955" lon="-1.8335355353"><ele>225.09</ele><time>2011-11-30T11:36:32Z</time></trkpt><trkpt lat="51.9292844832" lon="-1.8341417983"><ele>225.57</ele><time>2011-11-30T11:36:47Z</time></trkpt><trkpt lat="51.9293398038" lon="-1.8343588896"><ele>224.61</ele><time>2011-11-30T11:36:56Z</time></trkpt><trkpt lat="51.9293565676" lon="-1.8344166409"><ele>225.09</ele><time>2011-11-30T11:37:00Z</time></trkpt><trkpt lat="51.9294162467" lon="-1.8346200697"><ele>225.57</ele><time>2011-11-30T11:37:14Z</time></trkpt><trkpt lat="51.9294185098" lon="-1.8346380908"><ele>225.57</ele><time>2011-11-30T11:37:15Z</time></trkpt><trkpt lat="51.9294324238" lon="-1.8346650805"><ele>225.57</ele><time>2011-11-30T11:37:17Z</time></trkpt><trkpt lat="51.9294542167" lon="-1.8347416911"><ele>225.57</ele><time>2011-11-30T11:37:22Z</time></trkpt><trkpt lat="51.9295068551" lon="-1.8348863628"><ele>226.05</ele><time>2011-11-30T11:37:36Z</time></trkpt><trkpt lat="51.9295060169" lon="-1.8348903023"><ele>226.05</ele><time>2011-11-30T11:37:53Z</time></trkpt><trkpt lat="51.9295027480" lon="-1.8349085748"><ele>225.57</ele><time>2011-11-30T11:37:55Z</time></trkpt><trkpt lat="51.9295781851" lon="-1.8351494707"><ele>226.53</ele><time>2011-11-30T11:38:11Z</time></trkpt><trkpt lat="51.9296425581" lon="-1.8354207929"><ele>227.01</ele><time>2011-11-30T11:38:26Z</time></trkpt><trkpt lat="51.9296746608" lon="-1.8357291631"><ele>227.49</ele><time>2011-11-30T11:38:42Z</time></trkpt><trkpt lat="51.9296885747" lon="-1.8360354379"><ele>229.41</ele><time>2011-11-30T11:38:58Z</time></trkpt><trkpt lat="51.9296857249" lon="-1.8362564687"><ele>229.41</ele><time>2011-11-30T11:39:09Z</time></trkpt><trkpt lat="51.9296799414" lon="-1.8364437204"><ele>229.41</ele><time>2011-11-30T11:39:18Z</time></trkpt><trkpt lat="51.9296670333" lon="-1.8367567845"><ele>229.89</ele><time>2011-11-30T11:39:34Z</time></trkpt><trkpt lat="51.9296415523" lon="-1.8370416015"><ele>229.89</ele><time>2011-11-30T11:39:49Z</time></trkpt><trkpt lat="51.9296265487" lon="-1.8372153584"><ele>230.85</ele><time>2011-11-30T11:40:02Z</time></trkpt><trkpt lat="51.9296010677" lon="-1.8375333678"><ele>231.33</ele><time>2011-11-30T11:40:19Z</time></trkpt><trkpt lat="51.9295801129" lon="-1.8378531374"><ele>232.30</ele><time>2011-11-30T11:40:36Z</time></trkpt><trkpt lat="51.9295775145" lon="-1.8378696498"><ele>231.33</ele><time>2011-11-30T11:40:46Z</time></trkpt><trkpt lat="51.9295694679" lon="-1.8379345257"><ele>232.30</ele><time>2011-11-30T11:40:50Z</time></trkpt><trkpt lat="51.9295301568" lon="-1.8382794410"><ele>233.26</ele><time>2011-11-30T11:41:08Z</time></trkpt><trkpt lat="51.9295285642" lon="-1.8382969592"><ele>233.26</ele><time>2011-11-30T11:41:09Z</time></trkpt><trkpt lat="51.9294958748" lon="-1.8385272101"><ele>233.74</ele><time>2011-11-30T11:41:22Z</time></trkpt><trkpt lat="51.9294632692" lon="-1.8388132844"><ele>235.18</ele><time>2011-11-30T11:41:38Z</time></trkpt><trkpt lat="51.9294373691" lon="-1.8390816730"><ele>236.14</ele><time>2011-11-30T11:41:53Z</time></trkpt><trkpt lat="51.9294269755" lon="-1.8391879555"><ele>235.66</ele><time>2011-11-30T11:42:01Z</time></trkpt><trkpt lat="51.9294167496" lon="-1.8392732833"><ele>236.62</ele><time>2011-11-30T11:42:07Z</time></trkpt><trkpt lat="51.9293765165" lon="-1.8395516463"><ele>237.10</ele><time>2011-11-30T11:42:25Z</time></trkpt><trkpt lat="51.9293720741" lon="-1.8395898677"><ele>237.10</ele><time>2011-11-30T11:42:27Z</time></trkpt><trkpt lat="51.9293713197" lon="-1.8397903629"><ele>236.62</ele><time>2011-11-30T11:42:42Z</time></trkpt><trkpt lat="51.9293689728" lon="-1.8398020975"><ele>237.58</ele><time>2011-11-30T11:43:01Z</time></trkpt><trkpt lat="51.9293532148" lon="-1.8399635330"><ele>237.58</ele><time>2011-11-30T11:43:14Z</time></trkpt><trkpt lat="51.9293624349" lon="-1.8401598372"><ele>239.02</ele><time>2011-11-30T11:43:29Z</time></trkpt><trkpt lat="51.9293582439" lon="-1.8404294830"><ele>240.47</ele><time>2011-11-30T11:43:47Z</time></trkpt><trkpt lat="51.9293258060" lon="-1.8406757433"><ele>241.43</ele><time>2011-11-30T11:44:05Z</time></trkpt><trkpt lat="51.9293101318" lon="-1.8407923356"><ele>241.91</ele><time>2011-11-30T11:44:13Z</time></trkpt><trkpt lat="51.9292997383" lon="-1.8409095984"><ele>241.91</ele><time>2011-11-30T11:44:23Z</time></trkpt><trkpt lat="51.9292988162" lon="-1.8409418687"><ele>242.39</ele><time>2011-11-30T11:44:25Z</time></trkpt><trkpt lat="51.9292618521" lon="-1.8411648273"><ele>243.35</ele><time>2011-11-30T11:44:40Z</time></trkpt><trkpt lat="51.9292352814" lon="-1.8414187990"><ele>243.83</ele><time>2011-11-30T11:44:56Z</time></trkpt><trkpt lat="51.9292274863" lon="-1.8414702639"><ele>233.74</ele><time>2011-11-30T11:45:03Z</time></trkpt><trkpt lat="51.9292274863" lon="-1.8414702639"><ele>245.27</ele><time>2011-11-30T11:45:04Z</time></trkpt><trkpt lat="51.9292274863" lon="-1.8414702639"><ele>252.48</ele><time>2011-11-30T11:45:05Z</time></trkpt><trkpt lat="51.9292274863" lon="-1.8414702639"><ele>244.31</ele><time>2011-11-30T11:45:06Z</time></trkpt><trkpt lat="51.9291927014" lon="-1.8417649716"><ele>245.27</ele><time>2011-11-30T11:45:22Z</time></trkpt><trkpt lat="51.9291574974" lon="-1.8420025147"><ele>246.23</ele><time>2011-11-30T11:45:38Z</time></trkpt><trkpt lat="51.9291331898" lon="-1.8422067817"><ele>246.23</ele><time>2011-11-30T11:45:52Z</time></trkpt><trkpt lat="51.9291010872" lon="-1.8424216099"><ele>246.72</ele><time>2011-11-30T11:46:06Z</time></trkpt><trkpt lat="51.9290678110" lon="-1.8426596560"><ele>248.16</ele><time>2011-11-30T11:46:20Z</time></trkpt><trkpt lat="51.9290316850" lon="-1.8428866379"><ele>248.64</ele><time>2011-11-30T11:46:34Z</time></trkpt><trkpt lat="51.9290082995" lon="-1.8431264441"><ele>248.16</ele><time>2011-11-30T11:46:49Z</time></trkpt><trkpt lat="51.9289757777" lon="-1.8433072418"><ele>248.16</ele><time>2011-11-30T11:47:03Z</time></trkpt><trkpt lat="51.9289461896" lon="-1.8435582798"><ele>247.68</ele><time>2011-11-30T11:47:18Z</time></trkpt><trkpt lat="51.9289059564" lon="-1.8437961582"><ele>247.20</ele><time>2011-11-30T11:47:33Z</time></trkpt><trkpt lat="51.9288783800" lon="-1.8439357169"><ele>247.20</ele><time>2011-11-30T11:47:41Z</time></trkpt><trkpt lat="51.9288569223" lon="-1.8440595176"><ele>246.23</ele><time>2011-11-30T11:47:48Z</time></trkpt><trkpt lat="51.9288387336" lon="-1.8441134132"><ele>246.23</ele><time>2011-11-30T11:47:51Z</time></trkpt><trkpt lat="51.9288031943" lon="-1.8443454243"><ele>245.75</ele><time>2011-11-30T11:48:05Z</time></trkpt><trkpt lat="51.9287509751" lon="-1.8446107954"><ele>245.27</ele><time>2011-11-30T11:48:21Z</time></trkpt><trkpt lat="51.9287505560" lon="-1.8446257152"><ele>244.79</ele><time>2011-11-30T11:48:22Z</time></trkpt><trkpt lat="51.9287467003" lon="-1.8446637690"><ele>244.31</ele><time>2011-11-30T11:48:24Z</time></trkpt><trkpt lat="51.9287369773" lon="-1.8447444867"><ele>244.31</ele><time>2011-11-30T11:48:40Z</time></trkpt><trkpt lat="51.9287302718" lon="-1.8447956163"><ele>243.83</ele><time>2011-11-30T11:48:53Z</time></trkpt><trkpt lat="51.9286841713" lon="-1.8449576385"><ele>244.31</ele><time>2011-11-30T11:49:08Z</time></trkpt><trkpt lat="51.9286425970" lon="-1.8450966105"><ele>243.35</ele><time>2011-11-30T11:49:17Z</time></trkpt><trkpt lat="51.9286042079" lon="-1.8453235086"><ele>242.39</ele><time>2011-11-30T11:49:31Z</time></trkpt><trkpt lat="51.9285434391" lon="-1.8456001952"><ele>241.91</ele><time>2011-11-30T11:49:48Z</time></trkpt><trkpt lat="51.9284894597" lon="-1.8458003551"><ele>240.95</ele><time>2011-11-30T11:50:01Z</time></trkpt><trkpt lat="51.9284260925" lon="-1.8460044544"><ele>240.47</ele><time>2011-11-30T11:50:15Z</time></trkpt><trkpt lat="51.9284170400" lon="-1.8460221402"><ele>239.99</ele><time>2011-11-30T11:50:37Z</time></trkpt><trkpt lat="51.9284174591" lon="-1.8460227270"><ele>239.99</ele><time>2011-11-30T11:51:09Z</time></trkpt><trkpt lat="51.9284349773" lon="-1.8460555840"><ele>239.02</ele><time>2011-11-30T11:51:33Z</time></trkpt><trkpt lat="51.9284349773" lon="-1.8460555840"><ele>239.02</ele><time>2011-11-30T11:51:54Z</time></trkpt><trkpt lat="51.9284385815" lon="-1.8460523151"><ele>239.51</ele><time>2011-11-30T11:52:13Z</time></trkpt><trkpt lat="51.9283921458" lon="-1.8461219687"><ele>239.51</ele><time>2011-11-30T11:52:31Z</time></trkpt><trkpt lat="51.9283635635" lon="-1.8463243917"><ele>238.54</ele><time>2011-11-30T11:52:46Z</time></trkpt><trkpt lat="51.9283104222" lon="-1.8465169240"><ele>238.06</ele><time>2011-11-30T11:53:01Z</time></trkpt><trkpt lat="51.9282477256" lon="-1.8467322551"><ele>236.14</ele><time>2011-11-30T11:53:15Z</time></trkpt><trkpt lat="51.9282214902" lon="-1.8469028268"><ele>234.70</ele><time>2011-11-30T11:53:30Z</time></trkpt><trkpt lat="51.9281788263" lon="-1.8471306469"><ele>233.26</ele><time>2011-11-30T11:53:46Z</time></trkpt><trkpt lat="51.9281564467" lon="-1.8473332375"><ele>232.30</ele><time>2011-11-30T11:54:01Z</time></trkpt><trkpt lat="51.9281616434" lon="-1.8475157954"><ele>231.33</ele><time>2011-11-30T11:54:14Z</time></trkpt><trkpt lat="51.9281686004" lon="-1.8476540130"><ele>229.89</ele><time>2011-11-30T11:54:28Z</time></trkpt><trkpt lat="51.9281546865" lon="-1.8479136843"><ele>228.45</ele><time>2011-11-30T11:54:43Z</time></trkpt><trkpt lat="51.9281059876" lon="-1.8481700029"><ele>226.53</ele><time>2011-11-30T11:54:58Z</time></trkpt><trkpt lat="51.9280876312" lon="-1.8483657204"><ele>225.09</ele><time>2011-11-30T11:55:10Z</time></trkpt><trkpt lat="51.9280694425" lon="-1.8485304248"><ele>224.12</ele><time>2011-11-30T11:55:25Z</time></trkpt><trkpt lat="51.9280234259" lon="-1.8487223703"><ele>223.16</ele><time>2011-11-30T11:55:37Z</time></trkpt><trkpt lat="51.9279815163" lon="-1.8489249609"><ele>223.64</ele><time>2011-11-30T11:55:48Z</time></trkpt><trkpt lat="51.9279223401" lon="-1.8491001427"><ele>221.72</ele><time>2011-11-30T11:56:02Z</time></trkpt><trkpt lat="51.9279031456" lon="-1.8492011447"><ele>221.24</ele><time>2011-11-30T11:56:19Z</time></trkpt><trkpt lat="51.9278346654" lon="-1.8494258635"><ele>219.32</ele><time>2011-11-30T11:56:37Z</time></trkpt><trkpt lat="51.9277127925" lon="-1.8496412784"><ele>218.36</ele><time>2011-11-30T11:56:53Z</time></trkpt><trkpt lat="51.9276438095" lon="-1.8497790769"><ele>216.91</ele><time>2011-11-30T11:57:07Z</time></trkpt><trkpt lat="51.9275798555" lon="-1.8499038834"><ele>214.99</ele><time>2011-11-30T11:57:23Z</time></trkpt><trkpt lat="51.9274596591" lon="-1.8501396663"><ele>214.03</ele><time>2011-11-30T11:57:40Z</time></trkpt><trkpt lat="51.9274028298" lon="-1.8502683286"><ele>213.07</ele><time>2011-11-30T11:57:53Z</time></trkpt><trkpt lat="51.9273371994" lon="-1.8504186999"><ele>212.11</ele><time>2011-11-30T11:58:07Z</time></trkpt><trkpt lat="51.9272955414" lon="-1.8505153432"><ele>210.19</ele><time>2011-11-30T11:58:20Z</time></trkpt><trkpt lat="51.9271758478" lon="-1.8508884218"><ele>209.70</ele><time>2011-11-30T11:58:35Z</time></trkpt><trkpt lat="51.9271434937" lon="-1.8509802036"><ele>206.34</ele><time>2011-11-30T11:58:39Z</time></trkpt><trkpt lat="51.9271015842" lon="-1.8511056807"><ele>209.22</ele><time>2011-11-30T11:58:48Z</time></trkpt><trkpt lat="51.9270830601" lon="-1.8511922657"><ele>204.90</ele><time>2011-11-30T11:58:53Z</time></trkpt><trkpt lat="51.9270414859" lon="-1.8514224328"><ele>205.38</ele><time>2011-11-30T11:59:09Z</time></trkpt><trkpt lat="51.9269799627" lon="-1.8516792543"><ele>204.42</ele><time>2011-11-30T11:59:24Z</time></trkpt><trkpt lat="51.9269290008" lon="-1.8519564439"><ele>202.98</ele><time>2011-11-30T11:59:41Z</time></trkpt><trkpt lat="51.9268826488" lon="-1.8521765526"><ele>201.53</ele><time>2011-11-30T11:59:56Z</time></trkpt><trkpt lat="51.9268350396" lon="-1.8523406703"><ele>198.65</ele><time>2011-11-30T12:00:06Z</time></trkpt><trkpt lat="51.9267488737" lon="-1.8525492121"><ele>199.13</ele><time>2011-11-30T12:00:21Z</time></trkpt><trkpt lat="51.9266042858" lon="-1.8527494557"><ele>198.17</ele><time>2011-11-30T12:00:37Z</time></trkpt><trkpt lat="51.9264967460" lon="-1.8528830633"><ele>197.69</ele><time>2011-11-30T12:00:52Z</time></trkpt><trkpt lat="51.9264387432" lon="-1.8531485181"><ele>195.77</ele><time>2011-11-30T12:01:07Z</time></trkpt><trkpt lat="51.9264909625" lon="-1.8533739075"><ele>193.84</ele><time>2011-11-30T12:01:23Z</time></trkpt><trkpt lat="51.9266003463" lon="-1.8534457404"><ele>192.40</ele><time>2011-11-30T12:01:36Z</time></trkpt><trkpt lat="51.9266585167" lon="-1.8534712214"><ele>191.44</ele><time>2011-11-30T12:01:41Z</time></trkpt><trkpt lat="51.9268862531" lon="-1.8535546213"><ele>188.56</ele><time>2011-11-30T12:01:57Z</time></trkpt><trkpt lat="51.9270785339" lon="-1.8536006380"><ele>185.67</ele><time>2011-11-30T12:02:13Z</time></trkpt><trkpt lat="51.9271081220" lon="-1.8536060862"><ele>185.19</ele><time>2011-11-30T12:02:15Z</time></trkpt><trkpt lat="51.9272486027" lon="-1.8536762428"><ele>182.79</ele><time>2011-11-30T12:02:26Z</time></trkpt><trkpt lat="51.9274367765" lon="-1.8536856305"><ele>179.90</ele><time>2011-11-30T12:02:43Z</time></trkpt><trkpt lat="51.9275394548" lon="-1.8537460640"><ele>178.94</ele><time>2011-11-30T12:02:54Z</time></trkpt><trkpt lat="51.9275944401" lon="-1.8539148755"><ele>176.54</ele><time>2011-11-30T12:03:06Z</time></trkpt><trkpt lat="51.9275631756" lon="-1.8540096749"><ele>175.10</ele><time>2011-11-30T12:03:19Z</time></trkpt><trkpt lat="51.9275547098" lon="-1.8540416937"><ele>174.14</ele><time>2011-11-30T12:03:35Z</time></trkpt><trkpt lat="51.9274739921" lon="-1.8542914744"><ele>171.73</ele><time>2011-11-30T12:03:52Z</time></trkpt><trkpt lat="51.9273751695" lon="-1.8545617908"><ele>169.81</ele><time>2011-11-30T12:04:08Z</time></trkpt><trkpt lat="51.9273543824" lon="-1.8548663054"><ele>169.81</ele><time>2011-11-30T12:04:23Z</time></trkpt><trkpt lat="51.9274112955" lon="-1.8551105540"><ele>169.81</ele><time>2011-11-30T12:04:38Z</time></trkpt><trkpt lat="51.9274110440" lon="-1.8551839795"><ele>169.33</ele><time>2011-11-30T12:04:53Z</time></trkpt><trkpt lat="51.9274110440" lon="-1.8551839795"><ele>169.33</ele><time>2011-11-30T12:04:54Z</time></trkpt><trkpt lat="51.9274315797" lon="-1.8552445807"><ele>169.33</ele><time>2011-11-30T12:04:58Z</time></trkpt><trkpt lat="51.9275101181" lon="-1.8554060999"><ele>169.33</ele><time>2011-11-30T12:05:08Z</time></trkpt><trkpt lat="51.9275141414" lon="-1.8557571340"><ele>169.81</ele><time>2011-11-30T12:05:25Z</time></trkpt><trkpt lat="51.9275278039" lon="-1.8559255265"><ele>170.29</ele><time>2011-11-30T12:05:32Z</time></trkpt><trkpt lat="51.9275224395" lon="-1.8561210763"><ele>171.25</ele><time>2011-11-30T12:05:48Z</time></trkpt><trkpt lat="51.9275444839" lon="-1.8561675120"><ele>172.21</ele><time>2011-11-30T12:06:06Z</time></trkpt><trkpt lat="51.9275816157" lon="-1.8562623952"><ele>173.17</ele><time>2011-11-30T12:06:21Z</time></trkpt><trkpt lat="51.9276331645" lon="-1.8562869541"><ele>173.66</ele><time>2011-11-30T12:06:31Z</time></trkpt><trkpt lat="51.9277658500" lon="-1.8564347271"><ele>175.58</ele><time>2011-11-30T12:06:47Z</time></trkpt><trkpt lat="51.9277857989" lon="-1.8564476352"><ele>176.06</ele><time>2011-11-30T12:06:59Z</time></trkpt><trkpt lat="51.9278469868" lon="-1.8565296102"><ele>176.06</ele><time>2011-11-30T12:07:07Z</time></trkpt><trkpt lat="51.9279734697" lon="-1.8566771317"><ele>177.50</ele><time>2011-11-30T12:07:21Z</time></trkpt><trkpt lat="51.9281432033" lon="-1.8568948936"><ele>178.94</ele><time>2011-11-30T12:07:42Z</time></trkpt><trkpt lat="51.9282807503" lon="-1.8570505455"><ele>180.38</ele><time>2011-11-30T12:07:57Z</time></trkpt><trkpt lat="51.9283915590" lon="-1.8571941275"><ele>181.35</ele><time>2011-11-30T12:08:13Z</time></trkpt><trkpt lat="51.9285075646" lon="-1.8573356979"><ele>182.31</ele><time>2011-11-30T12:08:28Z</time></trkpt><trkpt lat="51.9285233226" lon="-1.8573506176"><ele>182.31</ele><time>2011-11-30T12:08:30Z</time></trkpt><trkpt lat="51.9286262523" lon="-1.8574966304"><ele>183.27</ele><time>2011-11-30T12:08:45Z</time></trkpt><trkpt lat="51.9286928885" lon="-1.8576035835"><ele>183.27</ele><time>2011-11-30T12:08:59Z</time></trkpt><trkpt lat="51.9288284238" lon="-1.8577828724"><ele>184.71</ele><time>2011-11-30T12:09:15Z</time></trkpt><trkpt lat="51.9289241452" lon="-1.8578611594"><ele>185.67</ele><time>2011-11-30T12:09:27Z</time></trkpt><trkpt lat="51.9289318565" lon="-1.8578717206"><ele>185.19</ele><time>2011-11-30T12:09:32Z</time></trkpt><trkpt lat="51.9289690722" lon="-1.8579188269"><ele>185.67</ele><time>2011-11-30T12:09:36Z</time></trkpt><trkpt lat="51.9291440025" lon="-1.8580518477"><ele>186.15</ele><time>2011-11-30T12:09:55Z</time></trkpt><trkpt lat="51.9292105548" lon="-1.8580969423"><ele>185.67</ele><time>2011-11-30T12:10:11Z</time></trkpt><trkpt lat="51.9292227924" lon="-1.8581089284"><ele>182.79</ele><time>2011-11-30T12:10:12Z</time></trkpt><trkpt lat="51.9292596728" lon="-1.8581747264"><ele>187.11</ele><time>2011-11-30T12:10:16Z</time></trkpt><trkpt lat="51.9293176755" lon="-1.8582478166"><ele>187.59</ele><time>2011-11-30T12:10:30Z</time></trkpt><trkpt lat="51.9293580763" lon="-1.8582364172"><ele>187.59</ele><time>2011-11-30T12:10:45Z</time></trkpt><trkpt lat="51.9293758459" lon="-1.8582304660"><ele>187.11</ele><time>2011-11-30T12:10:48Z</time></trkpt><trkpt lat="51.9294208568" lon="-1.8581959326"><ele>187.11</ele><time>2011-11-30T12:10:52Z</time></trkpt><trkpt lat="51.9294506963" lon="-1.8582127802"><ele>187.59</ele><time>2011-11-30T12:10:55Z</time></trkpt><trkpt lat="51.9296568073" lon="-1.8582674302"><ele>188.08</ele><time>2011-11-30T12:11:12Z</time></trkpt><trkpt lat="51.9298334979" lon="-1.8583038915"><ele>189.04</ele><time>2011-11-30T12:11:27Z</time></trkpt><trkpt lat="51.9299533591" lon="-1.8582946714"><ele>189.52</ele><time>2011-11-30T12:11:39Z</time></trkpt><trkpt lat="51.9300288800" lon="-1.8582884688"><ele>190.00</ele><time>2011-11-30T12:11:46Z</time></trkpt><trkpt lat="51.9300907385" lon="-1.8583013769"><ele>189.52</ele><time>2011-11-30T12:11:52Z</time></trkpt><trkpt lat="51.9302193169" lon="-1.8583291210"><ele>190.00</ele><time>2011-11-30T12:12:04Z</time></trkpt><trkpt lat="51.9302399363" lon="-1.8583368324"><ele>190.00</ele><time>2011-11-30T12:12:06Z</time></trkpt><trkpt lat="51.9304140285" lon="-1.8583851121"><ele>190.96</ele><time>2011-11-30T12:12:22Z</time></trkpt><trkpt lat="51.9305420201" lon="-1.8584125210"><ele>190.96</ele><time>2011-11-30T12:12:35Z</time></trkpt><trkpt lat="51.9306156971" lon="-1.8584282789"><ele>191.44</ele><time>2011-11-30T12:12:48Z</time></trkpt><trkpt lat="51.9306231569" lon="-1.8584297039"><ele>190.00</ele><time>2011-11-30T12:12:51Z</time></trkpt><trkpt lat="51.9306231569" lon="-1.8584297039"><ele>190.48</ele><time>2011-11-30T12:13:17Z</time></trkpt><trkpt lat="51.9306840934" lon="-1.8584498204"><ele>191.44</ele><time>2011-11-30T12:13:39Z</time></trkpt><trkpt lat="51.9308286812" lon="-1.8584855273"><ele>191.44</ele><time>2011-11-30T12:13:52Z</time></trkpt><trkpt lat="51.9309667312" lon="-1.8585179653"><ele>191.44</ele><time>2011-11-30T12:14:08Z</time></trkpt><trkpt lat="51.9311435893" lon="-1.8585675862"><ele>191.92</ele><time>2011-11-30T12:14:26Z</time></trkpt><trkpt lat="51.9311859179" lon="-1.8585834280"><ele>191.92</ele><time>2011-11-30T12:14:41Z</time></trkpt><trkpt lat="51.9313133229" lon="-1.8586103339"><ele>192.40</ele><time>2011-11-30T12:14:55Z</time></trkpt><trkpt lat="51.9313851558" lon="-1.8586334679"><ele>192.40</ele><time>2011-11-30T12:15:03Z</time></trkpt><trkpt lat="51.9314564858" lon="-1.8586483877"><ele>192.88</ele><time>2011-11-30T12:15:08Z</time></trkpt><trkpt lat="51.9316822942" lon="-1.8587443605"><ele>194.32</ele><time>2011-11-30T12:15:25Z</time></trkpt><trkpt lat="51.9317518640" lon="-1.8587744515"><ele>189.04</ele><time>2011-11-30T12:15:32Z</time></trkpt><trkpt lat="51.9317617547" lon="-1.8587785587"><ele>194.80</ele><time>2011-11-30T12:15:33Z</time></trkpt><trkpt lat="51.9317732379" lon="-1.8587822467"><ele>193.36</ele><time>2011-11-30T12:15:34Z</time></trkpt><trkpt lat="51.9319643453" lon="-1.8588397466"><ele>194.32</ele><time>2011-11-30T12:15:51Z</time></trkpt><trkpt lat="51.9322049059" lon="-1.8589476217"><ele>194.80</ele><time>2011-11-30T12:16:11Z</time></trkpt><trkpt lat="51.9323719572" lon="-1.8590353802"><ele>194.80</ele><time>2011-11-30T12:16:26Z</time></trkpt><trkpt lat="51.9325033017" lon="-1.8590876833"><ele>194.80</ele><time>2011-11-30T12:16:37Z</time></trkpt><trkpt lat="51.9327373244" lon="-1.8591678981"><ele>194.80</ele><time>2011-11-30T12:16:56Z</time></trkpt><trkpt lat="51.9329148531" lon="-1.8592005037"><ele>193.36</ele><time>2011-11-30T12:17:11Z</time></trkpt><trkpt lat="51.9331016857" lon="-1.8592339475"><ele>192.88</ele><time>2011-11-30T12:17:26Z</time></trkpt><trkpt lat="51.9332851656" lon="-1.8592305109"><ele>192.88</ele><time>2011-11-30T12:17:40Z</time></trkpt><trkpt lat="51.9334690645" lon="-1.8592188600"><ele>191.44</ele><time>2011-11-30T12:17:55Z</time></trkpt><trkpt lat="51.9335714076" lon="-1.8592015095"><ele>191.44</ele><time>2011-11-30T12:18:02Z</time></trkpt><trkpt lat="51.9337850623" lon="-1.8591727596"><ele>190.96</ele><time>2011-11-30T12:18:20Z</time></trkpt><trkpt lat="51.9340105355" lon="-1.8591260724"><ele>190.96</ele><time>2011-11-30T12:18:38Z</time></trkpt><trkpt lat="51.9341101963" lon="-1.8591223843"><ele>190.96</ele><time>2011-11-30T12:18:47Z</time></trkpt><trkpt lat="51.9342994597" lon="-1.8591007590"><ele>192.40</ele><time>2011-11-30T12:19:04Z</time></trkpt><trkpt lat="51.9344815984" lon="-1.8591703288"><ele>191.92</ele><time>2011-11-30T12:19:19Z</time></trkpt><trkpt lat="51.9345758948" lon="-1.8592166808"><ele>191.92</ele><time>2011-11-30T12:19:27Z</time></trkpt><trkpt lat="51.9347471371" lon="-1.8593016732"><ele>191.44</ele><time>2011-11-30T12:19:43Z</time></trkpt><trkpt lat="51.9348188024" lon="-1.8593409844"><ele>190.96</ele><time>2011-11-30T12:19:50Z</time></trkpt><trkpt lat="51.9348932337" lon="-1.8593748473"><ele>191.92</ele><time>2011-11-30T12:20:09Z</time></trkpt><trkpt lat="51.9348932337" lon="-1.8593748473"><ele>191.92</ele><time>2011-11-30T12:20:12Z</time></trkpt><trkpt lat="51.9349960797" lon="-1.8594032619"><ele>192.88</ele><time>2011-11-30T12:20:20Z</time></trkpt><trkpt lat="51.9351886958" lon="-1.8594761845"><ele>192.40</ele><time>2011-11-30T12:20:36Z</time></trkpt><trkpt lat="51.9352152664" lon="-1.8594838120"><ele>192.88</ele><time>2011-11-30T12:20:38Z</time></trkpt><trkpt lat="51.9354150910" lon="-1.8595491908"><ele>192.40</ele><time>2011-11-30T12:20:57Z</time></trkpt><trkpt lat="51.9355050288" lon="-1.8595863227"><ele>192.40</ele><time>2011-11-30T12:21:05Z</time></trkpt><trkpt lat="51.9356784504" lon="-1.8597103748"><ele>192.88</ele><time>2011-11-30T12:21:20Z</time></trkpt><trkpt lat="51.9357039314" lon="-1.8597361911"><ele>192.88</ele><time>2011-11-30T12:21:23Z</time></trkpt><trkpt lat="51.9358496089" lon="-1.8598591536"><ele>192.40</ele><time>2011-11-30T12:21:38Z</time></trkpt><trkpt lat="51.9358673785" lon="-1.8598836288"><ele>193.36</ele><time>2011-11-30T12:21:41Z</time></trkpt><trkpt lat="51.9359937776" lon="-1.8599777576"><ele>192.40</ele><time>2011-11-30T12:21:55Z</time></trkpt><trkpt lat="51.9360680413" lon="-1.8600282166"><ele>191.92</ele><time>2011-11-30T12:22:02Z</time></trkpt><trkpt lat="51.9362330809" lon="-1.8600858003"><ele>193.36</ele><time>2011-11-30T12:22:18Z</time></trkpt><trkpt lat="51.9362458214" lon="-1.8601013906"><ele>192.88</ele><time>2011-11-30T12:22:21Z</time></trkpt><trkpt lat="51.9363582227" lon="-1.8602117803"><ele>194.32</ele><time>2011-11-30T12:22:32Z</time></trkpt><trkpt lat="51.9364440534" lon="-1.8601974472"><ele>193.36</ele><time>2011-11-30T12:22:40Z</time></trkpt><trkpt lat="51.9364558719" lon="-1.8601334095"><ele>192.88</ele><time>2011-11-30T12:22:43Z</time></trkpt><trkpt lat="51.9364888966" lon="-1.8598283920"><ele>191.44</ele><time>2011-11-30T12:22:59Z</time></trkpt><trkpt lat="51.9364915788" lon="-1.8597943615"><ele>191.44</ele><time>2011-11-30T12:23:01Z</time></trkpt><trkpt lat="51.9365417864" lon="-1.8596370332"><ele>190.48</ele><time>2011-11-30T12:23:11Z</time></trkpt><trkpt lat="51.9365544431" lon="-1.8594864942"><ele>189.52</ele><time>2011-11-30T12:23:19Z</time></trkpt><trkpt lat="51.9365624897" lon="-1.8594146613"><ele>190.48</ele><time>2011-11-30T12:23:22Z</time></trkpt><trkpt lat="51.9365728833" lon="-1.8593686447"><ele>189.04</ele><time>2011-11-30T12:23:40Z</time></trkpt><trkpt lat="51.9365926646" lon="-1.8592894357"><ele>188.56</ele><time>2011-11-30T12:23:59Z</time></trkpt><trkpt lat="51.9366380945" lon="-1.8590922933"><ele>187.11</ele><time>2011-11-30T12:24:13Z</time></trkpt><trkpt lat="51.9366392680" lon="-1.8588014413"><ele>183.75</ele><time>2011-11-30T12:24:28Z</time></trkpt><trkpt lat="51.9366280362" lon="-1.8584227469"><ele>181.83</ele><time>2011-11-30T12:24:45Z</time></trkpt><trkpt lat="51.9366049021" lon="-1.8581292965"><ele>178.94</ele><time>2011-11-30T12:24:59Z</time></trkpt><trkpt lat="51.9365503360" lon="-1.8579143006"><ele>175.58</ele><time>2011-11-30T12:25:11Z</time></trkpt><trkpt lat="51.9365225919" lon="-1.8578041624"><ele>176.54</ele><time>2011-11-30T12:25:17Z</time></trkpt><trkpt lat="51.9364580512" lon="-1.8576365244"><ele>175.58</ele><time>2011-11-30T12:25:25Z</time></trkpt><trkpt lat="51.9364204165" lon="-1.8574958760"><ele>174.14</ele><time>2011-11-30T12:25:40Z</time></trkpt><trkpt lat="51.9364297204" lon="-1.8575068563"><ele>174.62</ele><time>2011-11-30T12:26:04Z</time></trkpt><trkpt lat="51.9363505114" lon="-1.8573514558"><ele>174.62</ele><time>2011-11-30T12:26:20Z</time></trkpt><trkpt lat="51.9363456499" lon="-1.8573537190"><ele>175.10</ele><time>2011-11-30T12:26:49Z</time></trkpt><trkpt lat="51.9363456499" lon="-1.8573537190"><ele>175.58</ele><time>2011-11-30T12:27:21Z</time></trkpt><trkpt lat="51.9363639224" lon="-1.8573761825"><ele>175.10</ele><time>2011-11-30T12:27:41Z</time></trkpt><trkpt lat="51.9363657665" lon="-1.8574313354"><ele>175.58</ele><time>2011-11-30T12:27:43Z</time></trkpt><trkpt lat="51.9363985397" lon="-1.8576820381"><ele>176.54</ele><time>2011-11-30T12:28:00Z</time></trkpt><trkpt lat="51.9365742244" lon="-1.8580826093"><ele>178.46</ele><time>2011-11-30T12:28:22Z</time></trkpt><trkpt lat="51.9366245158" lon="-1.8584050611"><ele>180.87</ele><time>2011-11-30T12:28:42Z</time></trkpt><trkpt lat="51.9366632402" lon="-1.8586536683"><ele>183.27</ele><time>2011-11-30T12:29:01Z</time></trkpt><trkpt lat="51.9367003720" lon="-1.8588650599"><ele>185.67</ele><time>2011-11-30T12:29:17Z</time></trkpt><trkpt lat="51.9366543554" lon="-1.8591276649"><ele>188.08</ele><time>2011-11-30T12:29:34Z</time></trkpt><trkpt lat="51.9366468955" lon="-1.8591989111"><ele>188.08</ele><time>2011-11-30T12:29:38Z</time></trkpt><trkpt lat="51.9366462249" lon="-1.8592375517"><ele>189.04</ele><time>2011-11-30T12:29:40Z</time></trkpt><trkpt lat="51.9366366696" lon="-1.8592738453"><ele>188.56</ele><time>2011-11-30T12:29:42Z</time></trkpt><trkpt lat="51.9365930837" lon="-1.8595128972"><ele>190.00</ele><time>2011-11-30T12:29:57Z</time></trkpt><trkpt lat="51.9365397748" lon="-1.8597522005"><ele>191.44</ele><time>2011-11-30T12:30:11Z</time></trkpt><trkpt lat="51.9365190715" lon="-1.8598683737"><ele>191.44</ele><time>2011-11-30T12:30:26Z</time></trkpt><trkpt lat="51.9365147129" lon="-1.8599295616"><ele>192.88</ele><time>2011-11-30T12:30:29Z</time></trkpt><trkpt lat="51.9364832807" lon="-1.8601071741"><ele>193.84</ele><time>2011-11-30T12:30:39Z</time></trkpt><trkpt lat="51.9364933390" lon="-1.8601971958"><ele>194.32</ele><time>2011-11-30T12:30:44Z</time></trkpt><trkpt lat="51.9365379307" lon="-1.8602397759"><ele>194.80</ele><time>2011-11-30T12:30:48Z</time></trkpt><trkpt lat="51.9366660900" lon="-1.8603214156"><ele>194.80</ele><time>2011-11-30T12:31:02Z</time></trkpt><trkpt lat="51.9368676748" lon="-1.8603711203"><ele>196.25</ele><time>2011-11-30T12:31:19Z</time></trkpt><trkpt lat="51.9370418508" lon="-1.8604730442"><ele>196.73</ele><time>2011-11-30T12:31:35Z</time></trkpt><trkpt lat="51.9372105785" lon="-1.8605416920"><ele>198.17</ele><time>2011-11-30T12:31:51Z</time></trkpt><trkpt lat="51.9372490514" lon="-1.8604838569"><ele>197.69</ele><time>2011-11-30T12:31:58Z</time></trkpt><trkpt lat="51.9372138474" lon="-1.8604411092"><ele>197.69</ele><time>2011-11-30T12:32:04Z</time></trkpt><trkpt lat="51.9371683337" lon="-1.8604062404"><ele>198.17</ele><time>2011-11-30T12:32:20Z</time></trkpt><trkpt lat="51.9371694233" lon="-1.8604107667"><ele>197.69</ele><time>2011-11-30T12:32:41Z</time></trkpt><trkpt lat="51.9371676631" lon="-1.8604153767"><ele>198.65</ele><time>2011-11-30T12:32:49Z</time></trkpt><trkpt lat="51.9371849298" lon="-1.8604084197"><ele>198.17</ele><time>2011-11-30T12:33:00Z</time></trkpt><trkpt lat="51.9371850975" lon="-1.8604057375"><ele>197.69</ele><time>2011-11-30T12:33:18Z</time></trkpt><trkpt lat="51.9371892046" lon="-1.8603906501"><ele>198.17</ele><time>2011-11-30T12:33:34Z</time></trkpt><trkpt lat="51.9371892046" lon="-1.8603906501"><ele>203.46</ele><time>2011-11-30T12:33:42Z</time></trkpt><trkpt lat="51.9371892046" lon="-1.8603906501"><ele>198.17</ele><time>2011-11-30T12:33:43Z</time></trkpt><trkpt lat="51.9371892046" lon="-1.8603906501"><ele>194.32</ele><time>2011-11-30T12:33:52Z</time></trkpt><trkpt lat="51.9371892046" lon="-1.8603906501"><ele>199.13</ele><time>2011-11-30T12:33:53Z</time></trkpt><trkpt lat="51.9371891208" lon="-1.8603903987"><ele>197.69</ele><time>2011-11-30T12:33:56Z</time></trkpt></trkseg></trk></gpx>